Time,TemperatureF,DewpointF,PressureIn,WindDirection,WindDirectionDegrees,WindSpeedMPH,WindSpeedGustMPH,Humidity,HourlyPrecipIn,Conditions,Clouds,dailyrainin,SoftwareType,DateUTC
2013-07-10 06:33:00,67.5,64.5,29.87,WSW,242,0.0,0.0,90,0.00,,,0.00,VWS V14.01,2013-07-10 13:33:00,
2013-07-10 06:34:00,67.5,64.5,29.87,WSW,242,0.0,0.0,90,0.00,,,0.00,VWS V14.01,2013-07-10 13:34:00,
2013-07-10 06:35:00,85.4,63.5,29.85,SW,214,0.0,1.0,48,0.00,,,0.00,VWS V14.01,2013-07-10 13:35:00,
2013-07-10 06:36:00,67.6,64.6,29.87,WSW,241,0.0,1.0,90,0.00,,,0.00,VWS V14.01,2013-07-10 13:36:00,
2013-07-10 06:37:00,67.7,64.7,29.87,WSW,241,0.0,1.0,90,0.00,,,0.00,VWS V14.01,2013-07-10 13:37:00,
2013-07-10 06:38:00,67.7,64.7,29.87,WSW,241,0.0,0.0,90,0.00,,,0.00,VWS V14.01,2013-07-10 13:38:00,
2013-07-10 06:39:00,67.9,64.9,29.87,WSW,242,0.0,0.0,90,0.00,,,0.00,VWS V14.01,2013-07-10 13:39:00,
2013-07-10 06:40:00,67.7,64.7,29.87,WSW,241,0.0,0.0,90,0.00,,,0.00,VWS V14.01,2013-07-10 13:40:00,
2013-07-10 06:41:00,67.9,64.9,29.87,WSW,242,0.0,0.0,90,0.00,,,0.00,VWS V14.01,2013-07-10 13:41:00,
2013-07-10 06:42:00,68.0,65.0,29.87,WSW,242,0.0,0.0,90,0.00,,,0.00,VWS V14.01,2013-07-10 13:42:00,
2013-07-10 06:43:00,68.4,65.4,29.87,WSW,242,0.0,1.0,90,0.00,,,0.00,VWS V14.01,2013-07-10 13:43:00,
2013-07-10 06:44:00,68.3,65.3,29.87,WSW,241,0.0,0.0,90,0.00,,,0.00,VWS V14.01,2013-07-10 13:44:00,
2013-07-10 06:45:00,68.4,65.4,29.87,WSW,242,0.0,1.0,90,0.00,,,0.00,VWS V14.01,2013-07-10 13:45:00,
2013-07-10 06:46:00,68.4,65.4,29.87,WSW,242,0.0,1.0,90,0.00,,,0.00,VWS V14.01,2013-07-10 13:46:00,
2013-07-10 06:47:00,68.4,65.0,29.88,West,260,1.0,1.0,89,0.00,,,0.00,VWS V14.01,2013-07-10 13:47:00,
2013-07-10 06:48:00,68.4,65.0,29.88,West,259,1.0,1.0,89,0.00,,,0.00,VWS V14.01,2013-07-10 13:48:00,
2013-07-10 06:49:00,68.4,65.0,29.87,West,259,1.0,1.0,89,0.00,,,0.00,VWS V14.01,2013-07-10 13:49:00,
2013-07-10 06:50:00,68.4,65.0,29.87,West,260,0.0,1.0,89,0.00,,,0.00,VWS V14.01,2013-07-10 13:50:00,
2013-07-10 06:51:00,68.4,65.0,29.87,West,259,1.0,1.0,89,0.00,,,0.00,VWS V14.01,2013-07-10 13:51:00,
2013-07-10 06:52:00,68.4,65.0,29.87,West,260,0.0,1.0,89,0.00,,,0.00,VWS V14.01,2013-07-10 13:52:00,
2013-07-10 06:53:00,68.4,65.0,29.87,West,262,1.0,1.0,89,0.00,,,0.00,VWS V14.01,2013-07-10 13:53:00,
2013-07-10 06:54:00,68.5,65.1,29.87,West,262,0.0,1.0,89,0.00,,,0.00,VWS V14.01,2013-07-10 13:54:00,
2013-07-10 06:55:00,68.6,64.9,29.87,West,259,1.0,1.0,88,0.00,,,0.00,VWS V14.01,2013-07-10 13:55:00,
2013-07-10 06:56:00,68.6,65.2,29.87,WSW,252,1.0,1.0,89,0.00,,,0.00,VWS V14.01,2013-07-10 13:56:00,
2013-07-10 06:57:00,68.8,65.1,29.87,West,260,0.0,1.0,88,0.00,,,0.00,VWS V14.01,2013-07-10 13:57:00,
2013-07-10 06:58:00,68.7,65.0,29.88,West,260,1.0,1.0,88,0.00,,,0.00,VWS V14.01,2013-07-10 13:58:00,
2013-07-10 06:59:00,68.8,65.1,29.87,West,260,0.0,1.0,88,0.00,,,0.00,VWS V14.01,2013-07-10 13:59:00,
2013-07-10 07:00:00,68.9,65.2,29.88,West,260,0.0,0.0,88,0.00,,,0.00,VWS V14.01,2013-07-10 14:00:00,
2013-07-10 07:01:00,69.0,65.3,29.88,WSW,253,0.0,0.0,88,0.00,,,0.00,VWS V14.01,2013-07-10 14:01:00,
2013-07-10 07:02:00,69.1,65.4,29.87,WSW,253,0.0,0.0,88,0.00,,,0.00,VWS V14.01,2013-07-10 14:02:00,
2013-07-10 07:03:00,69.0,65.3,29.88,WSW,253,0.0,0.0,88,0.00,,,0.00,VWS V14.01,2013-07-10 14:03:00,
2013-07-10 07:04:00,69.2,65.2,29.88,WSW,255,0.0,0.0,87,0.00,,,0.00,VWS V14.01,2013-07-10 14:04:00,
2013-07-10 07:05:00,69.2,65.5,29.88,WSW,253,0.0,0.0,88,0.00,,,0.00,VWS V14.01,2013-07-10 14:05:00,
2013-07-10 07:06:00,69.2,65.2,29.88,WSW,242,1.0,2.0,87,0.00,,,0.00,VWS V14.01,2013-07-10 14:06:00,
2013-07-10 07:07:00,69.2,65.2,29.88,WSW,256,2.0,2.0,87,0.00,,,0.00,VWS V14.01,2013-07-10 14:07:00,
2013-07-10 07:08:00,69.2,65.2,29.88,WSW,242,1.0,2.0,87,0.00,,,0.00,VWS V14.01,2013-07-10 14:08:00,
2013-07-10 07:09:00,69.4,65.4,29.88,SW,221,0.0,2.0,87,0.00,,,0.00,VWS V14.01,2013-07-10 14:09:00,
2013-07-10 07:10:00,69.5,65.5,29.88,SW,221,0.0,1.0,87,0.00,,,0.00,VWS V14.01,2013-07-10 14:10:00,
2013-07-10 07:11:00,69.6,65.6,29.88,SSW,207,2.0,2.0,87,0.00,,,0.00,VWS V14.01,2013-07-10 14:11:00,
2013-07-10 07:12:00,69.5,65.5,29.88,SW,221,0.0,1.0,87,0.00,,,0.00,VWS V14.01,2013-07-10 14:12:00,
2013-07-10 07:13:00,69.6,65.6,29.88,SSW,207,2.0,2.0,87,0.00,,,0.00,VWS V14.01,2013-07-10 14:13:00,
2013-07-10 07:14:00,69.7,65.3,29.88,SW,228,2.0,3.0,86,0.00,,,0.00,VWS V14.01,2013-07-10 14:14:00,
2013-07-10 07:15:00,69.7,65.3,29.88,SW,221,1.0,2.0,86,0.00,,,0.00,VWS V14.01,2013-07-10 14:15:00,
2013-07-10 07:16:00,69.8,65.4,29.88,SW,221,0.0,1.0,86,0.00,,,0.00,VWS V14.01,2013-07-10 14:16:00,
2013-07-10 07:17:00,69.8,65.1,29.88,SW,236,1.0,1.0,85,0.00,,,0.00,VWS V14.01,2013-07-10 14:17:00,
2013-07-10 07:18:00,69.9,65.2,29.88,SW,221,1.0,1.0,85,0.00,,,0.00,VWS V14.01,2013-07-10 14:18:00,
2013-07-10 07:19:00,69.9,65.2,29.88,SW,221,0.0,1.0,85,0.00,,,0.00,VWS V14.01,2013-07-10 14:19:00,
2013-07-10 07:20:00,69.9,65.2,29.88,SW,221,1.0,1.0,85,0.00,,,0.00,VWS V14.01,2013-07-10 14:20:00,
2013-07-10 07:21:00,69.9,65.2,29.88,SW,221,0.0,1.0,85,0.00,,,0.00,VWS V14.01,2013-07-10 14:21:00,
2013-07-10 07:22:00,69.9,65.2,29.88,SW,225,0.0,1.0,85,0.00,,,0.00,VWS V14.01,2013-07-10 14:22:00,
2013-07-10 07:23:00,70.0,65.3,29.88,SW,222,0.0,0.0,85,0.00,,,0.00,VWS V14.01,2013-07-10 14:23:00,
2013-07-10 07:24:00,69.9,65.2,29.88,SW,225,0.0,1.0,85,0.00,,,0.00,VWS V14.01,2013-07-10 14:24:00,
2013-07-10 07:25:00,70.1,65.4,29.89,SE,131,1.0,1.0,85,0.00,,,0.00,VWS V14.01,2013-07-10 14:25:00,
2013-07-10 07:26:00,70.0,65.3,29.88,SE,145,0.0,1.0,85,0.00,,,0.00,VWS V14.01,2013-07-10 14:26:00,
2013-07-10 07:27:00,70.1,65.4,29.89,SE,131,1.0,1.0,85,0.00,,,0.00,VWS V14.01,2013-07-10 14:27:00,
2013-07-10 07:28:00,70.2,65.5,29.89,SW,219,0.0,1.0,85,0.00,,,0.00,VWS V14.01,2013-07-10 14:28:00,
2013-07-10 07:29:00,70.1,65.4,29.89,SW,219,1.0,1.0,85,0.00,,,0.00,VWS V14.01,2013-07-10 14:29:00,
2013-07-10 07:30:00,70.2,65.5,29.89,SSE,149,0.0,0.0,85,0.00,,,0.00,VWS V14.01,2013-07-10 14:30:00,
2013-07-10 07:31:00,70.3,65.6,29.89,East,96,0.0,1.0,85,0.00,,,0.00,VWS V14.01,2013-07-10 14:31:00,
2013-07-10 07:32:00,70.2,65.5,29.89,SSE,149,0.0,0.0,85,0.00,,,0.00,VWS V14.01,2013-07-10 14:32:00,
2013-07-10 07:33:00,70.3,65.6,29.89,East,96,0.0,1.0,85,0.00,,,0.00,VWS V14.01,2013-07-10 14:33:00,
2013-07-10 07:34:00,70.3,65.2,29.89,SE,131,2.0,2.0,84,0.00,,,0.00,VWS V14.01,2013-07-10 14:34:00,
2013-07-10 07:35:00,70.3,65.2,29.89,SE,131,2.0,2.0,84,0.00,,,0.00,VWS V14.01,2013-07-10 14:35:00,
2013-07-10 07:36:00,70.3,65.2,29.89,SE,141,2.0,2.0,84,0.00,,,0.00,VWS V14.01,2013-07-10 14:36:00,
2013-07-10 07:37:00,70.3,65.2,29.89,SE,131,2.0,2.0,84,0.00,,,0.00,VWS V14.01,2013-07-10 14:37:00,
2013-07-10 07:38:00,70.3,65.2,29.89,SE,141,2.0,2.0,84,0.00,,,0.00,VWS V14.01,2013-07-10 14:38:00,
2013-07-10 07:39:00,70.2,65.1,29.89,SE,141,0.0,2.0,84,0.00,,,0.00,VWS V14.01,2013-07-10 14:39:00,
2013-07-10 07:40:00,70.2,65.1,29.88,South,169,0.0,1.0,84,0.00,,,0.00,VWS V14.01,2013-07-10 14:40:00,
2013-07-10 07:41:00,70.2,65.1,29.88,SSE,160,1.0,1.0,84,0.00,,,0.00,VWS V14.01,2013-07-10 14:41:00,
2013-07-10 07:42:00,70.2,65.1,29.88,SSE,148,1.0,1.0,84,0.00,,,0.00,VWS V14.01,2013-07-10 14:42:00,
2013-07-10 07:43:00,70.3,65.2,29.88,SSE,167,0.0,1.0,84,0.00,,,0.00,VWS V14.01,2013-07-10 14:43:00,
2013-07-10 07:44:00,70.3,65.2,29.88,SSE,167,1.0,1.0,84,0.00,,,0.00,VWS V14.01,2013-07-10 14:44:00,
2013-07-10 07:45:00,70.3,65.2,29.88,South,177,1.0,1.0,84,0.00,,,0.00,VWS V14.01,2013-07-10 14:45:00,
2013-07-10 07:46:00,70.3,65.2,29.88,SSE,165,0.0,0.0,84,0.00,,,0.00,VWS V14.01,2013-07-10 14:46:00,
2013-07-10 07:47:00,70.3,65.2,29.88,SSE,165,0.0,1.0,84,0.00,,,0.00,VWS V14.01,2013-07-10 14:47:00,
2013-07-10 07:48:00,70.3,65.2,29.88,SSE,165,0.0,0.0,84,0.00,,,0.00,VWS V14.01,2013-07-10 14:48:00,
2013-07-10 07:49:00,70.3,65.2,29.88,SSE,165,0.0,0.0,84,0.00,,,0.00,VWS V14.01,2013-07-10 14:49:00,
2013-07-10 07:50:00,70.3,65.2,29.88,SSE,165,0.0,0.0,84,0.00,,,0.00,VWS V14.01,2013-07-10 14:50:00,
2013-07-10 07:51:00,70.4,65.3,29.88,SE,132,0.0,0.0,84,0.00,,,0.00,VWS V14.01,2013-07-10 14:51:00,
2013-07-10 07:52:00,70.3,65.2,29.87,SE,132,0.0,0.0,84,0.00,,,0.00,VWS V14.01,2013-07-10 14:52:00,
2013-07-10 07:53:00,70.4,65.3,29.88,SE,132,0.0,0.0,84,0.00,,,0.00,VWS V14.01,2013-07-10 14:53:00,
2013-07-10 07:54:00,70.4,65.3,29.87,SE,129,0.0,0.0,84,0.00,,,0.00,VWS V14.01,2013-07-10 14:54:00,
2013-07-10 07:55:00,70.4,65.3,29.87,SE,132,0.0,0.0,84,0.00,,,0.00,VWS V14.01,2013-07-10 14:55:00,
2013-07-10 07:56:00,70.4,65.3,29.87,SE,129,0.0,0.0,84,0.00,,,0.00,VWS V14.01,2013-07-10 14:56:00,
2013-07-10 07:57:00,70.4,65.3,29.87,ESE,104,0.0,0.0,84,0.00,,,0.00,VWS V14.01,2013-07-10 14:57:00,
2013-07-10 07:58:00,70.4,65.3,29.87,ESE,105,0.0,0.0,84,0.00,,,0.00,VWS V14.01,2013-07-10 14:58:00,
2013-07-10 07:59:00,70.5,65.4,29.87,ESE,104,0.0,0.0,84,0.00,,,0.00,VWS V14.01,2013-07-10 14:59:00,
2013-07-10 08:00:00,70.5,65.4,29.87,ESE,104,0.0,0.0,84,0.00,,,0.00,VWS V14.01,2013-07-10 15:00:00,
2013-07-10 08:01:00,70.5,65.4,29.87,ESE,104,0.0,0.0,84,0.00,,,0.00,VWS V14.01,2013-07-10 15:01:00,
2013-07-10 08:02:00,70.5,65.4,29.87,North,0,0.0,0.0,84,0.00,,,0.00,VWS V14.01,2013-07-10 15:02:00,
2013-07-10 08:03:00,70.6,65.5,29.87,North,0,0.0,0.0,84,0.00,,,0.00,VWS V14.01,2013-07-10 15:03:00,
2013-07-10 08:04:00,70.7,65.6,29.87,North,0,0.0,0.0,84,0.00,,,0.00,VWS V14.01,2013-07-10 15:04:00,
2013-07-10 08:05:00,70.7,65.6,29.87,North,0,0.0,0.0,84,0.00,,,0.00,VWS V14.01,2013-07-10 15:05:00,
2013-07-10 08:06:00,70.8,65.7,29.87,North,0,0.0,0.0,84,0.00,,,0.00,VWS V14.01,2013-07-10 15:06:00,
2013-07-10 08:07:00,70.9,65.5,29.87,North,0,0.0,0.0,83,0.00,,,0.00,VWS V14.01,2013-07-10 15:07:00,
2013-07-10 08:08:00,70.9,65.5,29.87,North,0,0.0,0.0,83,0.00,,,0.00,VWS V14.01,2013-07-10 15:08:00,
2013-07-10 08:09:00,71.0,65.6,29.87,North,0,0.0,0.0,83,0.00,,,0.00,VWS V14.01,2013-07-10 15:09:00,
2013-07-10 08:10:00,71.1,65.7,29.87,North,0,0.0,0.0,83,0.00,,,0.00,VWS V14.01,2013-07-10 15:10:00,
2013-07-10 08:11:00,71.2,65.8,29.87,North,0,0.0,0.0,83,0.00,,,0.00,VWS V14.01,2013-07-10 15:11:00,
2013-07-10 08:12:00,71.2,65.8,29.87,North,0,0.0,0.0,83,0.00,,,0.00,VWS V14.01,2013-07-10 15:12:00,
2013-07-10 08:13:00,71.3,65.5,29.87,North,0,0.0,0.0,82,0.00,,,0.00,VWS V14.01,2013-07-10 15:13:00,
2013-07-10 08:14:00,71.4,65.6,29.87,North,0,0.0,0.0,82,0.00,,,0.00,VWS V14.01,2013-07-10 15:14:00,
2013-07-10 08:15:00,71.5,66.1,29.88,East,90,1.0,2.0,83,0.00,,,0.00,VWS V14.01,2013-07-10 15:15:00,
2013-07-10 08:16:00,71.6,65.8,29.87,ENE,68,0.0,1.0,82,0.00,,,0.00,VWS V14.01,2013-07-10 15:16:00,
2013-07-10 08:17:00,71.7,65.9,29.88,ENE,68,0.0,0.0,82,0.00,,,0.00,VWS V14.01,2013-07-10 15:17:00,
2013-07-10 08:18:00,71.9,66.1,29.88,East,90,0.0,1.0,82,0.00,,,0.00,VWS V14.01,2013-07-10 15:18:00,
2013-07-10 08:19:00,72.0,66.2,29.88,East,90,0.0,1.0,82,0.00,,,0.00,VWS V14.01,2013-07-10 15:19:00,
2013-07-10 08:20:00,72.3,66.5,29.88,East,90,0.0,0.0,82,0.00,,,0.00,VWS V14.01,2013-07-10 15:20:00,
2013-07-10 08:21:00,72.6,66.4,29.88,ENE,68,0.0,2.0,81,0.00,,,0.00,VWS V14.01,2013-07-10 15:21:00,
2013-07-10 08:22:00,72.8,66.3,29.88,East,90,1.0,2.0,80,0.00,,,0.00,VWS V14.01,2013-07-10 15:22:00,
2013-07-10 08:23:00,72.9,66.0,29.88,ESE,112,2.0,4.0,79,0.00,,,0.00,VWS V14.01,2013-07-10 15:23:00,
2013-07-10 08:24:00,73.0,65.7,29.88,East,90,0.0,2.0,78,0.00,,,0.00,VWS V14.01,2013-07-10 15:24:00,
2013-07-10 08:25:00,73.1,65.8,29.88,SE,135,1.0,3.0,78,0.00,,,0.00,VWS V14.01,2013-07-10 15:25:00,
2013-07-10 08:26:00,73.2,65.9,29.88,ESE,112,1.0,2.0,78,0.00,,,0.00,VWS V14.01,2013-07-10 15:26:00,
2013-07-10 08:27:00,73.3,66.0,29.88,ESE,112,1.0,1.0,78,0.00,,,0.00,VWS V14.01,2013-07-10 15:27:00,
2013-07-10 08:28:00,73.4,66.1,29.88,East,90,1.0,3.0,78,0.00,,,0.00,VWS V14.01,2013-07-10 15:28:00,
2013-07-10 08:29:00,73.5,65.9,29.88,East,90,2.0,3.0,77,0.00,,,0.00,VWS V14.01,2013-07-10 15:29:00,
2013-07-10 08:30:00,73.6,65.9,29.88,NE,45,2.0,3.0,77,0.00,,,0.00,VWS V14.01,2013-07-10 15:30:00,
2013-07-10 08:31:00,73.6,65.6,29.88,East,90,2.0,3.0,76,0.00,,,0.00,VWS V14.01,2013-07-10 15:31:00,
2013-07-10 08:32:00,73.6,65.6,29.88,ESE,112,2.0,3.0,76,0.00,,,0.00,VWS V14.01,2013-07-10 15:32:00,
2013-07-10 08:33:00,73.6,65.9,29.88,East,90,1.0,2.0,77,0.00,,,0.00,VWS V14.01,2013-07-10 15:33:00,
2013-07-10 08:34:00,73.7,66.1,29.88,SE,135,2.0,4.0,77,0.00,,,0.00,VWS V14.01,2013-07-10 15:34:00,
2013-07-10 08:35:00,73.7,65.7,29.88,ESE,112,3.0,5.0,76,0.00,,,0.00,VWS V14.01,2013-07-10 15:35:00,
2013-07-10 08:36:00,73.7,65.7,29.88,ESE,112,2.0,3.0,76,0.00,,,0.00,VWS V14.01,2013-07-10 15:36:00,
2013-07-10 08:37:00,73.7,65.7,29.88,ESE,112,2.0,2.0,76,0.00,,,0.00,VWS V14.01,2013-07-10 15:37:00,
2013-07-10 08:38:00,73.7,65.7,29.88,ESE,112,2.0,3.0,76,0.00,,,0.00,VWS V14.01,2013-07-10 15:38:00,
2013-07-10 08:39:00,73.7,65.7,29.88,ESE,112,2.0,3.0,76,0.00,,,0.00,VWS V14.01,2013-07-10 15:39:00,
2013-07-10 08:40:00,73.7,65.7,29.88,South,180,2.0,3.0,76,0.00,,,0.00,VWS V14.01,2013-07-10 15:40:00,
2013-07-10 08:41:00,73.7,65.7,29.88,SSW,202,1.0,2.0,76,0.00,,,0.00,VWS V14.01,2013-07-10 15:41:00,
2013-07-10 08:42:00,73.7,65.7,29.88,SE,135,1.0,2.0,76,0.00,,,0.00,VWS V14.01,2013-07-10 15:42:00,
2013-07-10 08:43:00,73.8,65.8,29.88,SE,135,2.0,3.0,76,0.00,,,0.00,VWS V14.01,2013-07-10 15:43:00,
2013-07-10 08:44:00,73.8,65.8,29.88,ESE,112,1.0,2.0,76,0.00,,,0.00,VWS V14.01,2013-07-10 15:44:00,
2013-07-10 08:45:00,73.8,65.8,29.88,ESE,112,0.0,2.0,76,0.00,,,0.00,VWS V14.01,2013-07-10 15:45:00,
2013-07-10 08:46:00,73.9,65.9,29.88,ESE,112,0.0,0.0,76,0.00,,,0.00,VWS V14.01,2013-07-10 15:46:00,
2013-07-10 08:47:00,74.0,66.3,29.88,East,90,0.0,1.0,77,0.00,,,0.00,VWS V14.01,2013-07-10 15:47:00,
2013-07-10 08:48:00,74.2,66.5,29.88,East,90,0.0,1.0,77,0.00,,,0.00,VWS V14.01,2013-07-10 15:48:00,
2013-07-10 08:49:00,74.4,66.7,29.88,SW,225,1.0,2.0,77,0.00,,,0.00,VWS V14.01,2013-07-10 15:49:00,
2013-07-10 08:50:00,74.5,66.4,29.88,SSE,158,3.0,4.0,76,0.00,,,0.00,VWS V14.01,2013-07-10 15:50:00,
2013-07-10 08:51:00,74.6,66.2,29.88,SSW,202,2.0,3.0,75,0.00,,,0.00,VWS V14.01,2013-07-10 15:51:00,
2013-07-10 08:52:00,74.6,66.2,29.88,SSW,202,2.0,3.0,75,0.00,,,0.00,VWS V14.01,2013-07-10 15:52:00,
2013-07-10 08:53:00,74.7,66.3,29.88,WSW,248,1.0,2.0,75,0.00,,,0.00,VWS V14.01,2013-07-10 15:53:00,
2013-07-10 08:54:00,74.8,66.3,29.88,SE,135,1.0,1.0,75,0.00,,,0.00,VWS V14.01,2013-07-10 15:54:00,
2013-07-10 08:55:00,74.9,66.4,29.88,ESE,112,1.0,2.0,75,0.00,,,0.00,VWS V14.01,2013-07-10 15:55:00,
2013-07-10 08:56:00,75.0,66.6,29.88,SSW,202,2.0,4.0,75,0.00,,,0.00,VWS V14.01,2013-07-10 15:56:00,
2013-07-10 08:57:00,75.0,66.2,29.88,South,180,2.0,3.0,74,0.00,,,0.00,VWS V14.01,2013-07-10 15:57:00,
2013-07-10 08:58:00,75.0,66.2,29.88,South,180,2.0,3.0,74,0.00,,,0.00,VWS V14.01,2013-07-10 15:58:00,
2013-07-10 08:59:00,75.0,66.2,29.88,SSW,202,1.0,2.0,74,0.00,,,0.00,VWS V14.01,2013-07-10 15:59:00,
2013-07-10 09:00:00,75.0,66.2,29.88,SSW,202,1.0,2.0,74,0.00,,,0.00,VWS V14.01,2013-07-10 16:00:00,
2013-07-10 09:01:00,75.1,66.2,29.88,SE,135,2.0,4.0,74,0.00,,,0.00,VWS V14.01,2013-07-10 16:01:00,
2013-07-10 09:02:00,75.0,66.2,29.88,ESE,112,3.0,5.0,74,0.00,,,0.00,VWS V14.01,2013-07-10 16:02:00,
2013-07-10 09:03:00,75.0,66.2,29.88,East,90,3.0,4.0,74,0.00,,,0.00,VWS V14.01,2013-07-10 16:03:00,
2013-07-10 09:04:00,74.9,66.1,29.88,East,90,2.0,3.0,74,0.00,,,0.00,VWS V14.01,2013-07-10 16:04:00,
2013-07-10 09:05:00,74.8,66.0,29.88,SE,135,2.0,3.0,74,0.00,,,0.00,VWS V14.01,2013-07-10 16:05:00,
2013-07-10 09:06:00,74.7,65.9,29.88,SSE,158,2.0,3.0,74,0.00,,,0.00,VWS V14.01,2013-07-10 16:06:00,
2013-07-10 09:07:00,74.7,66.3,29.88,SSW,202,1.0,3.0,75,0.00,,,0.00,VWS V14.01,2013-07-10 16:07:00,
2013-07-10 09:08:00,74.7,66.3,29.88,SSE,158,1.0,2.0,75,0.00,,,0.00,VWS V14.01,2013-07-10 16:08:00,
2013-07-10 09:09:00,74.7,66.3,29.88,SE,135,1.0,3.0,75,0.00,,,0.00,VWS V14.01,2013-07-10 16:09:00,
2013-07-10 09:10:00,74.8,66.3,29.88,SSW,202,1.0,3.0,75,0.00,,,0.00,VWS V14.01,2013-07-10 16:10:00,
2013-07-10 09:11:00,74.8,66.3,29.88,SSE,158,1.0,3.0,75,0.00,,,0.00,VWS V14.01,2013-07-10 16:11:00,
2013-07-10 09:12:00,74.9,66.4,29.88,SSW,202,1.0,2.0,75,0.00,,,0.00,VWS V14.01,2013-07-10 16:12:00,
2013-07-10 09:13:00,74.9,66.4,29.88,SSW,202,2.0,3.0,75,0.00,,,0.00,VWS V14.01,2013-07-10 16:13:00,
2013-07-10 09:14:00,75.0,66.2,29.88,SE,135,2.0,3.0,74,0.00,,,0.00,VWS V14.01,2013-07-10 16:14:00,
2013-07-10 09:15:00,74.9,66.1,29.88,SSE,158,1.0,2.0,74,0.00,,,0.00,VWS V14.01,2013-07-10 16:15:00,
2013-07-10 09:16:00,75.0,66.2,29.88,ESE,112,1.0,2.0,74,0.00,,,0.00,VWS V14.01,2013-07-10 16:16:00,
2013-07-10 09:17:00,75.0,66.2,29.88,SE,135,1.0,2.0,74,0.00,,,0.00,VWS V14.01,2013-07-10 16:17:00,
2013-07-10 09:18:00,75.0,66.2,29.88,SE,135,1.0,2.0,74,0.00,,,0.00,VWS V14.01,2013-07-10 16:18:00,
2013-07-10 09:19:00,75.1,66.2,29.88,SSW,202,1.0,2.0,74,0.00,,,0.00,VWS V14.01,2013-07-10 16:19:00,
2013-07-10 09:20:00,75.1,66.6,29.88,SSW,202,0.0,0.0,75,0.00,,,0.00,VWS V14.01,2013-07-10 16:20:00,
2013-07-10 09:21:00,75.3,66.4,29.88,SW,225,1.0,2.0,74,0.00,,,0.00,VWS V14.01,2013-07-10 16:21:00,
2013-07-10 09:22:00,75.4,66.5,29.88,SSW,202,2.0,3.0,74,0.00,,,0.00,VWS V14.01,2013-07-10 16:22:00,
2013-07-10 09:23:00,75.5,66.2,29.88,SSW,202,2.0,3.0,73,0.00,,,0.00,VWS V14.01,2013-07-10 16:23:00,
2013-07-10 09:24:00,75.6,66.3,29.88,ESE,112,1.0,2.0,73,0.00,,,0.00,VWS V14.01,2013-07-10 16:24:00,
2013-07-10 09:25:00,75.7,66.4,29.88,SE,135,1.0,3.0,73,0.00,,,0.00,VWS V14.01,2013-07-10 16:25:00,
2013-07-10 09:26:00,75.8,66.1,29.88,SSE,158,2.0,4.0,72,0.00,,,0.00,VWS V14.01,2013-07-10 16:26:00,
2013-07-10 09:27:00,75.8,66.1,29.88,SE,135,4.0,6.0,72,0.00,,,0.00,VWS V14.01,2013-07-10 16:27:00,
2013-07-10 09:28:00,75.8,65.7,29.89,SE,135,3.0,6.0,71,0.00,,,0.00,VWS V14.01,2013-07-10 16:28:00,
2013-07-10 09:29:00,75.8,66.1,29.89,SSE,158,1.0,2.0,72,0.00,,,0.00,VWS V14.01,2013-07-10 16:29:00,
2013-07-10 09:30:00,75.8,66.1,29.88,SE,135,1.0,3.0,72,0.00,,,0.00,VWS V14.01,2013-07-10 16:30:00,
2013-07-10 09:31:00,75.8,66.1,29.88,East,90,4.0,6.0,72,0.00,,,0.00,VWS V14.01,2013-07-10 16:31:00,
2013-07-10 09:32:00,75.8,65.7,29.89,SE,135,4.0,6.0,71,0.00,,,0.00,VWS V14.01,2013-07-10 16:32:00,
2013-07-10 09:33:00,75.8,66.1,29.88,SW,225,1.0,2.0,72,0.00,,,0.00,VWS V14.01,2013-07-10 16:33:00,
2013-07-10 09:34:00,75.9,66.2,29.89,WSW,248,3.0,6.0,72,0.00,,,0.00,VWS V14.01,2013-07-10 16:34:00,
2013-07-10 09:35:00,76.0,65.9,29.89,SW,225,3.0,5.0,71,0.00,,,0.00,VWS V14.01,2013-07-10 16:35:00,
2013-07-10 09:36:00,76.0,65.9,29.89,SW,225,4.0,6.0,71,0.00,,,0.00,VWS V14.01,2013-07-10 16:36:00,
2013-07-10 09:37:00,75.9,65.8,29.89,SW,225,4.0,6.0,71,0.00,,,0.00,VWS V14.01,2013-07-10 16:37:00,
2013-07-10 09:38:00,75.9,65.8,29.89,SSW,202,3.0,5.0,71,0.00,,,0.00,VWS V14.01,2013-07-10 16:38:00,
2013-07-10 09:39:00,75.9,65.8,29.89,SSW,202,4.0,7.0,71,0.00,,,0.00,VWS V14.01,2013-07-10 16:39:00,
2013-07-10 09:40:00,75.9,65.8,29.89,SSE,158,5.0,6.0,71,0.00,,,0.00,VWS V14.01,2013-07-10 16:40:00,
2013-07-10 09:41:00,75.8,65.7,29.89,SW,225,4.0,7.0,71,0.00,,,0.00,VWS V14.01,2013-07-10 16:41:00,
2013-07-10 09:42:00,75.8,65.7,29.89,SSW,202,2.0,4.0,71,0.00,,,0.00,VWS V14.01,2013-07-10 16:42:00,
2013-07-10 09:43:00,75.8,65.7,29.89,SSW,202,2.0,3.0,71,0.00,,,0.00,VWS V14.01,2013-07-10 16:43:00,
2013-07-10 09:44:00,75.9,65.8,29.89,South,180,3.0,4.0,71,0.00,,,0.00,VWS V14.01,2013-07-10 16:44:00,
2013-07-10 09:45:00,75.9,65.8,29.89,SE,135,5.0,8.0,71,0.00,,,0.00,VWS V14.01,2013-07-10 16:45:00,
2013-07-10 09:46:00,75.8,65.7,29.89,South,180,4.0,5.0,71,0.00,,,0.00,VWS V14.01,2013-07-10 16:46:00,
2013-07-10 09:47:00,75.8,65.7,29.89,SSE,158,3.0,8.0,71,0.00,,,0.00,VWS V14.01,2013-07-10 16:47:00,
2013-07-10 09:48:00,75.8,65.3,29.89,SE,135,4.0,6.0,70,0.00,,,0.00,VWS V14.01,2013-07-10 16:48:00,
2013-07-10 09:49:00,75.7,65.6,29.90,SE,135,6.0,9.0,71,0.00,,,0.00,VWS V14.01,2013-07-10 16:49:00,
2013-07-10 09:50:00,75.7,65.6,29.90,SSE,158,3.0,9.0,71,0.00,,,0.00,VWS V14.01,2013-07-10 16:50:00,
2013-07-10 09:51:00,75.7,65.6,29.90,SE,135,4.0,6.0,71,0.00,,,0.00,VWS V14.01,2013-07-10 16:51:00,
2013-07-10 09:52:00,75.8,66.1,29.90,ESE,112,4.0,6.0,72,0.00,,,0.00,VWS V14.01,2013-07-10 16:52:00,
2013-07-10 09:53:00,75.8,66.1,29.90,ESE,112,4.0,7.0,72,0.00,,,0.00,VWS V14.01,2013-07-10 16:53:00,
2013-07-10 09:54:00,75.9,66.2,29.90,ESE,112,6.0,10.0,72,0.00,,,0.00,VWS V14.01,2013-07-10 16:54:00,
2013-07-10 09:55:00,75.9,66.2,29.90,SE,135,3.0,10.0,72,0.00,,,0.00,VWS V14.01,2013-07-10 16:55:00,
2013-07-10 09:56:00,76.0,66.3,29.90,SE,135,5.0,7.0,72,0.00,,,0.00,VWS V14.01,2013-07-10 16:56:00,
2013-07-10 09:57:00,76.1,66.4,29.90,SE,135,5.0,7.0,72,0.00,,,0.00,VWS V14.01,2013-07-10 16:57:00,
2013-07-10 09:58:00,76.1,66.4,29.90,SE,135,6.0,10.0,72,0.00,,,0.00,VWS V14.01,2013-07-10 16:58:00,
2013-07-10 09:59:00,76.2,66.5,29.90,SSE,158,5.0,8.0,72,0.00,,,0.00,VWS V14.01,2013-07-10 16:59:00,
2013-07-10 10:00:00,76.2,66.5,29.90,SSE,158,5.0,8.0,72,0.00,,,0.00,VWS V14.01,2013-07-10 17:00:00,
2013-07-10 10:01:00,76.2,66.1,29.90,SSW,202,7.0,10.0,71,0.00,,,0.00,VWS V14.01,2013-07-10 17:01:00,
2013-07-10 10:02:00,76.2,66.5,29.90,SSW,202,5.0,7.0,72,0.00,,,0.00,VWS V14.01,2013-07-10 17:02:00,
2013-07-10 10:03:00,76.2,66.5,29.90,SSE,158,3.0,6.0,72,0.00,,,0.00,VWS V14.01,2013-07-10 17:03:00,
2013-07-10 10:04:00,76.2,66.5,29.90,SE,135,5.0,8.0,72,0.00,,,0.00,VWS V14.01,2013-07-10 17:04:00,
2013-07-10 10:05:00,76.2,66.5,29.90,SSE,158,4.0,6.0,72,0.00,,,0.00,VWS V14.01,2013-07-10 17:05:00,
2013-07-10 10:06:00,76.1,66.4,29.90,SE,135,4.0,7.0,72,0.00,,,0.00,VWS V14.01,2013-07-10 17:06:00,
2013-07-10 10:07:00,76.1,66.4,29.90,SE,135,7.0,8.0,72,0.00,,,0.00,VWS V14.01,2013-07-10 17:07:00,
2013-07-10 10:08:00,76.0,66.3,29.90,SE,135,6.0,10.0,72,0.00,,,0.00,VWS V14.01,2013-07-10 17:08:00,
2013-07-10 10:09:00,75.9,66.6,29.90,ESE,112,5.0,7.0,73,0.00,,,0.00,VWS V14.01,2013-07-10 17:09:00,
2013-07-10 10:10:00,75.9,66.6,29.90,SE,135,4.0,6.0,73,0.00,,,0.00,VWS V14.01,2013-07-10 17:10:00,
2013-07-10 10:11:00,75.9,66.6,29.90,South,180,4.0,5.0,73,0.00,,,0.00,VWS V14.01,2013-07-10 17:11:00,
2013-07-10 10:12:00,76.1,67.2,29.90,SW,225,3.0,5.0,74,0.00,,,0.00,VWS V14.01,2013-07-10 17:12:00,
2013-07-10 10:13:00,76.3,66.6,29.90,SSW,202,6.0,10.0,72,0.00,,,0.00,VWS V14.01,2013-07-10 17:13:00,
2013-07-10 10:14:00,76.4,66.3,29.89,SSW,202,7.0,10.0,71,0.00,,,0.00,VWS V14.01,2013-07-10 17:14:00,
2013-07-10 10:15:00,76.4,66.3,29.89,South,180,6.0,9.0,71,0.00,,,0.00,VWS V14.01,2013-07-10 17:15:00,
2013-07-10 10:16:00,76.5,66.4,29.89,SSE,158,4.0,7.0,71,0.00,,,0.00,VWS V14.01,2013-07-10 17:16:00,
2013-07-10 10:17:00,76.5,66.4,29.89,SE,135,5.0,8.0,71,0.00,,,0.00,VWS V14.01,2013-07-10 17:17:00,
2013-07-10 10:18:00,76.4,66.3,29.89,ESE,112,4.0,8.0,71,0.00,,,0.00,VWS V14.01,2013-07-10 17:18:00,
2013-07-10 10:19:00,76.5,66.8,29.89,SE,135,3.0,5.0,72,0.00,,,0.00,VWS V14.01,2013-07-10 17:19:00,
2013-07-10 10:20:00,76.6,66.5,29.89,SSE,158,5.0,7.0,71,0.00,,,0.00,VWS V14.01,2013-07-10 17:20:00,
2013-07-10 10:21:00,76.6,66.1,29.89,SSE,158,4.0,6.0,70,0.00,,,0.00,VWS V14.01,2013-07-10 17:21:00,
2013-07-10 10:22:00,76.6,66.1,29.89,SSE,158,6.0,8.0,70,0.00,,,0.00,VWS V14.01,2013-07-10 17:22:00,
2013-07-10 10:23:00,76.6,66.1,29.89,South,180,6.0,8.0,70,0.00,,,0.00,VWS V14.01,2013-07-10 17:23:00,
2013-07-10 10:24:00,76.6,66.1,29.89,SSE,158,5.0,9.0,70,0.00,,,0.00,VWS V14.01,2013-07-10 17:24:00,
2013-07-10 10:25:00,76.5,66.0,29.89,SSE,158,4.0,6.0,70,0.00,,,0.00,VWS V14.01,2013-07-10 17:25:00,
2013-07-10 10:26:00,76.6,66.5,29.89,SE,135,5.0,6.0,71,0.00,,,0.00,VWS V14.01,2013-07-10 17:26:00,
2013-07-10 10:27:00,76.7,66.2,29.89,SSE,158,4.0,5.0,70,0.00,,,0.00,VWS V14.01,2013-07-10 17:27:00,
2013-07-10 10:28:00,76.8,66.3,29.89,SE,135,4.0,8.0,70,0.00,,,0.00,VWS V14.01,2013-07-10 17:28:00,
2013-07-10 10:29:00,76.9,66.4,29.89,ESE,112,4.0,6.0,70,0.00,,,0.00,VWS V14.01,2013-07-10 17:29:00,
2013-07-10 10:30:00,77.0,66.5,29.89,ESE,112,5.0,7.0,70,0.00,,,0.00,VWS V14.01,2013-07-10 17:30:00,
2013-07-10 10:31:00,77.0,66.1,29.89,SW,225,5.0,7.0,69,0.00,,,0.00,VWS V14.01,2013-07-10 17:31:00,
2013-07-10 10:32:00,77.1,66.6,29.89,WSW,248,3.0,6.0,70,0.00,,,0.00,VWS V14.01,2013-07-10 17:32:00,
2013-07-10 10:33:00,77.2,66.7,29.89,ESE,112,3.0,4.0,70,0.00,,,0.00,VWS V14.01,2013-07-10 17:33:00,
2013-07-10 10:34:00,77.5,66.9,29.89,ESE,112,4.0,8.0,70,0.00,,,0.00,VWS V14.01,2013-07-10 17:34:00,
2013-07-10 10:35:00,77.5,66.5,29.89,SE,135,6.0,8.0,69,0.00,,,0.00,VWS V14.01,2013-07-10 17:35:00,
2013-07-10 10:36:00,77.6,66.6,29.89,ESE,112,4.0,5.0,69,0.00,,,0.00,VWS V14.01,2013-07-10 17:36:00,
2013-07-10 10:37:00,77.7,66.7,29.89,ESE,112,5.0,9.0,69,0.00,,,0.00,VWS V14.01,2013-07-10 17:37:00,
2013-07-10 10:38:00,77.7,66.3,29.89,SE,135,3.0,5.0,68,0.00,,,0.00,VWS V14.01,2013-07-10 17:38:00,
2013-07-10 10:39:00,77.8,66.4,29.89,SSE,158,4.0,7.0,68,0.00,,,0.00,VWS V14.01,2013-07-10 17:39:00,
2013-07-10 10:40:00,77.9,66.5,29.89,SSE,158,3.0,6.0,68,0.00,,,0.00,VWS V14.01,2013-07-10 17:40:00,
2013-07-10 10:41:00,78.1,66.7,29.88,SW,225,4.0,6.0,68,0.00,,,0.00,VWS V14.01,2013-07-10 17:41:00,
2013-07-10 10:42:00,78.3,66.9,29.88,SE,135,1.0,3.0,68,0.00,,,0.00,VWS V14.01,2013-07-10 17:42:00,
2013-07-10 10:43:00,78.6,67.6,29.88,SE,135,2.0,4.0,69,0.00,,,0.00,VWS V14.01,2013-07-10 17:43:00,
2013-07-10 10:44:00,78.8,66.9,29.89,SE,135,5.0,8.0,67,0.00,,,0.00,VWS V14.01,2013-07-10 17:44:00,
2013-07-10 10:45:00,78.9,66.6,29.88,SE,135,6.0,9.0,66,0.00,,,0.00,VWS V14.01,2013-07-10 17:45:00,
2013-07-10 10:46:00,78.9,66.6,29.88,SE,135,6.0,17.0,66,0.00,,,0.00,VWS V14.01,2013-07-10 17:46:00,
2013-07-10 10:47:00,78.8,66.1,29.89,SE,135,7.0,16.0,65,0.00,,,0.00,VWS V14.01,2013-07-10 17:47:00,
2013-07-10 10:48:00,78.6,66.3,29.89,SE,135,4.0,7.0,66,0.00,,,0.00,VWS V14.01,2013-07-10 17:48:00,
2013-07-10 10:49:00,78.6,66.7,29.89,SE,135,2.0,3.0,67,0.00,,,0.00,VWS V14.01,2013-07-10 17:49:00,
2013-07-10 10:50:00,78.6,66.3,29.89,SE,135,6.0,9.0,66,0.00,,,0.00,VWS V14.01,2013-07-10 17:50:00,
2013-07-10 10:51:00,78.6,66.3,29.89,SSE,158,4.0,6.0,66,0.00,,,0.00,VWS V14.01,2013-07-10 17:51:00,
2013-07-10 10:52:00,78.5,66.2,29.88,SE,135,7.0,11.0,66,0.00,,,0.00,VWS V14.01,2013-07-10 17:52:00,
2013-07-10 10:53:00,78.4,66.1,29.88,SE,135,5.0,8.0,66,0.00,,,0.00,VWS V14.01,2013-07-10 17:53:00,
2013-07-10 10:54:00,78.4,66.6,29.88,SSE,158,4.0,7.0,67,0.00,,,0.00,VWS V14.01,2013-07-10 17:54:00,
2013-07-10 10:55:00,78.4,66.1,29.88,SE,135,6.0,9.0,66,0.00,,,0.00,VWS V14.01,2013-07-10 17:55:00,
2013-07-10 10:56:00,78.3,66.4,29.89,ESE,112,6.0,9.0,67,0.00,,,0.00,VWS V14.01,2013-07-10 17:56:00,
2013-07-10 10:57:00,78.1,66.3,29.89,ESE,112,7.0,10.0,67,0.00,,,0.00,VWS V14.01,2013-07-10 17:57:00,
2013-07-10 10:58:00,77.9,66.1,29.89,SE,135,7.0,11.0,67,0.00,,,0.00,VWS V14.01,2013-07-10 17:58:00,
2013-07-10 10:59:00,77.7,65.9,29.89,SE,135,7.0,11.0,67,0.00,,,0.00,VWS V14.01,2013-07-10 17:59:00,
2013-07-10 11:00:00,77.5,66.1,29.89,SE,135,6.0,8.0,68,0.00,,,0.00,VWS V14.01,2013-07-10 18:00:00,
2013-07-10 11:01:00,77.3,65.9,29.89,SE,135,7.0,10.0,68,0.00,,,0.00,VWS V14.01,2013-07-10 18:01:00,
2013-07-10 11:02:00,77.1,65.7,29.89,SE,135,7.0,11.0,68,0.00,,,0.00,VWS V14.01,2013-07-10 18:02:00,
2013-07-10 11:03:00,77.0,66.1,29.88,ESE,112,5.0,7.0,69,0.00,,,0.00,VWS V14.01,2013-07-10 18:03:00,
2013-07-10 11:04:00,76.9,66.4,29.88,SE,135,5.0,6.0,70,0.00,,,0.00,VWS V14.01,2013-07-10 18:04:00,
2013-07-10 11:05:00,76.8,66.3,29.89,ESE,112,6.0,8.0,70,0.00,,,0.00,VWS V14.01,2013-07-10 18:05:00,
2013-07-10 11:06:00,76.7,66.6,29.88,SE,135,6.0,9.0,71,0.00,,,0.00,VWS V14.01,2013-07-10 18:06:00,
2013-07-10 11:07:00,76.6,66.5,29.88,SE,135,3.0,4.0,71,0.00,,,0.00,VWS V14.01,2013-07-10 18:07:00,
2013-07-10 11:08:00,76.6,66.5,29.88,SE,135,4.0,6.0,71,0.00,,,0.00,VWS V14.01,2013-07-10 18:08:00,
2013-07-10 11:09:00,76.6,66.5,29.88,SSE,158,4.0,7.0,71,0.00,,,0.00,VWS V14.01,2013-07-10 18:09:00,
2013-07-10 11:10:00,76.6,66.5,29.88,South,180,6.0,9.0,71,0.00,,,0.00,VWS V14.01,2013-07-10 18:10:00,
2013-07-10 11:11:00,76.5,66.4,29.88,ESE,112,5.0,9.0,71,0.00,,,0.00,VWS V14.01,2013-07-10 18:11:00,
2013-07-10 11:12:00,76.5,66.4,29.88,SE,135,6.0,11.0,71,0.00,,,0.00,VWS V14.01,2013-07-10 18:12:00,
2013-07-10 11:13:00,76.4,66.7,29.88,South,180,5.0,6.0,72,0.00,,,0.00,VWS V14.01,2013-07-10 18:13:00,
2013-07-10 11:14:00,76.3,66.6,29.88,SW,225,3.0,4.0,72,0.00,,,0.00,VWS V14.01,2013-07-10 18:14:00,
2013-07-10 11:15:00,76.3,66.6,29.88,ESE,112,5.0,7.0,72,0.00,,,0.00,VWS V14.01,2013-07-10 18:15:00,
2013-07-10 11:16:00,76.3,66.6,29.89,SE,135,4.0,9.0,72,0.00,,,0.00,VWS V14.01,2013-07-10 18:16:00,
2013-07-10 11:17:00,76.2,66.5,29.88,SE,135,6.0,11.0,72,0.00,,,0.00,VWS V14.01,2013-07-10 18:17:00,
2013-07-10 11:18:00,76.2,66.5,29.88,SE,135,4.0,5.0,72,0.00,,,0.00,VWS V14.01,2013-07-10 18:18:00,
2013-07-10 11:19:00,76.1,66.4,29.88,SSE,158,5.0,7.0,72,0.00,,,0.00,VWS V14.01,2013-07-10 18:19:00,
2013-07-10 11:20:00,76.1,66.8,29.88,SE,135,3.0,5.0,73,0.00,,,0.00,VWS V14.01,2013-07-10 18:20:00,
2013-07-10 11:21:00,76.1,66.8,29.88,SE,135,4.0,7.0,73,0.00,,,0.00,VWS V14.01,2013-07-10 18:21:00,
2013-07-10 11:22:00,76.1,66.4,29.88,SE,135,5.0,7.0,72,0.00,,,0.00,VWS V14.01,2013-07-10 18:22:00,
2013-07-10 11:23:00,76.1,66.4,29.88,SSW,202,5.0,7.0,72,0.00,,,0.00,VWS V14.01,2013-07-10 18:23:00,
2013-07-10 11:24:00,76.1,66.4,29.88,SSE,158,4.0,7.0,72,0.00,,,0.00,VWS V14.01,2013-07-10 18:24:00,
2013-07-10 11:25:00,76.1,66.8,29.88,SSW,202,4.0,6.0,73,0.00,,,0.00,VWS V14.01,2013-07-10 18:25:00,
2013-07-10 11:26:00,76.1,66.8,29.88,ESE,112,4.0,7.0,73,0.00,,,0.00,VWS V14.01,2013-07-10 18:26:00,
2013-07-10 11:27:00,76.1,66.8,29.88,SE,135,4.0,8.0,73,0.00,,,0.00,VWS V14.01,2013-07-10 18:27:00,
2013-07-10 11:28:00,76.1,66.4,29.88,ESE,112,5.0,8.0,72,0.00,,,0.00,VWS V14.01,2013-07-10 18:28:00,
2013-07-10 11:29:00,76.0,66.7,29.89,SE,135,4.0,7.0,73,0.00,,,0.00,VWS V14.01,2013-07-10 18:29:00,
2013-07-10 11:30:00,75.9,66.6,29.89,South,180,4.0,7.0,73,0.00,,,0.00,VWS V14.01,2013-07-10 18:30:00,
2013-07-10 11:31:00,75.9,66.6,29.89,SE,135,4.0,5.0,73,0.00,,,0.00,VWS V14.01,2013-07-10 18:31:00,
2013-07-10 11:32:00,75.9,66.6,29.89,SE,135,4.0,7.0,73,0.00,,,0.00,VWS V14.01,2013-07-10 18:32:00,
2013-07-10 11:33:00,75.9,66.6,29.89,SSE,158,4.0,8.0,73,0.00,,,0.00,VWS V14.01,2013-07-10 18:33:00,
2013-07-10 11:34:00,76.0,66.7,29.89,SE,135,2.0,4.0,73,0.00,,,0.00,VWS V14.01,2013-07-10 18:34:00,
2013-07-10 11:35:00,76.0,66.7,29.89,SSW,202,3.0,5.0,73,0.00,,,0.00,VWS V14.01,2013-07-10 18:35:00,
2013-07-10 11:36:00,76.1,66.8,29.89,SE,135,4.0,6.0,73,0.00,,,0.00,VWS V14.01,2013-07-10 18:36:00,
2013-07-10 11:37:00,76.1,66.8,29.89,SE,135,4.0,5.0,73,0.00,,,0.00,VWS V14.01,2013-07-10 18:37:00,
2013-07-10 11:38:00,76.1,66.8,29.89,South,180,3.0,5.0,73,0.00,,,0.00,VWS V14.01,2013-07-10 18:38:00,
2013-07-10 11:39:00,76.2,66.9,29.89,SSE,158,3.0,5.0,73,0.00,,,0.00,VWS V14.01,2013-07-10 18:39:00,
2013-07-10 11:40:00,76.3,67.0,29.89,ESE,112,3.0,5.0,73,0.00,,,0.00,VWS V14.01,2013-07-10 18:40:00,
2013-07-10 11:41:00,76.4,67.1,29.89,SSE,158,3.0,6.0,73,0.00,,,0.00,VWS V14.01,2013-07-10 18:41:00,
2013-07-10 11:42:00,76.4,66.7,29.89,SE,135,3.0,6.0,72,0.00,,,0.00,VWS V14.01,2013-07-10 18:42:00,
2013-07-10 11:43:00,76.4,67.1,29.89,SE,135,3.0,6.0,73,0.00,,,0.00,VWS V14.01,2013-07-10 18:43:00,
2013-07-10 11:44:00,76.5,66.8,29.89,SSE,158,4.0,6.0,72,0.00,,,0.00,VWS V14.01,2013-07-10 18:44:00,
2013-07-10 11:45:00,76.5,66.8,29.89,South,180,5.0,7.0,72,0.00,,,0.00,VWS V14.01,2013-07-10 18:45:00,
2013-07-10 11:46:00,76.4,66.7,29.89,SSW,202,5.0,7.0,72,0.00,,,0.00,VWS V14.01,2013-07-10 18:46:00,
2013-07-10 11:47:00,76.4,66.7,29.89,SSE,158,5.0,7.0,72,0.00,,,0.00,VWS V14.01,2013-07-10 18:47:00,
2013-07-10 11:48:00,76.3,66.6,29.89,SE,135,3.0,4.0,72,0.00,,,0.00,VWS V14.01,2013-07-10 18:48:00,
2013-07-10 11:49:00,76.3,66.6,29.89,SSE,158,4.0,6.0,72,0.00,,,0.00,VWS V14.01,2013-07-10 18:49:00,
2013-07-10 11:50:00,76.2,66.5,29.89,SE,135,5.0,7.0,72,0.00,,,0.00,VWS V14.01,2013-07-10 18:50:00,
2013-07-10 11:51:00,76.2,66.5,29.89,SE,135,4.0,5.0,72,0.00,,,0.00,VWS V14.01,2013-07-10 18:51:00,
2013-07-10 11:52:00,76.1,66.4,29.89,SSE,158,4.0,8.0,72,0.00,,,0.00,VWS V14.01,2013-07-10 18:52:00,
2013-07-10 11:53:00,76.1,66.4,29.89,SE,135,3.0,5.0,72,0.00,,,0.00,VWS V14.01,2013-07-10 18:53:00,
2013-07-10 11:54:00,76.0,66.7,29.89,South,180,3.0,4.0,73,0.00,,,0.00,VWS V14.01,2013-07-10 18:54:00,
2013-07-10 11:55:00,76.0,66.7,29.89,SSW,202,3.0,5.0,73,0.00,,,0.00,VWS V14.01,2013-07-10 18:55:00,
2013-07-10 11:56:00,76.0,66.7,29.89,SSW,202,4.0,7.0,73,0.00,,,0.00,VWS V14.01,2013-07-10 18:56:00,
2013-07-10 11:57:00,76.0,66.7,29.89,SE,135,4.0,7.0,73,0.00,,,0.00,VWS V14.01,2013-07-10 18:57:00,
2013-07-10 11:58:00,76.0,66.7,29.89,SE,135,3.0,3.0,73,0.00,,,0.00,VWS V14.01,2013-07-10 18:58:00,
2013-07-10 11:59:00,76.0,66.7,29.89,SW,225,5.0,7.0,73,0.00,,,0.00,VWS V14.01,2013-07-10 18:59:00,
2013-07-10 12:00:00,76.0,66.7,29.90,South,180,2.0,4.0,73,0.00,,,0.00,VWS V14.01,2013-07-10 19:00:00,
2013-07-10 12:01:00,76.0,67.1,29.90,SW,225,5.0,9.0,74,0.00,,,0.00,VWS V14.01,2013-07-10 19:01:00,
2013-07-10 12:02:00,75.9,66.6,29.89,SW,225,4.0,6.0,73,0.00,,,0.00,VWS V14.01,2013-07-10 19:02:00,
2013-07-10 12:03:00,75.8,66.9,29.89,SSW,202,3.0,6.0,74,0.00,,,0.00,VWS V14.01,2013-07-10 19:03:00,
2013-07-10 12:04:00,75.8,66.9,29.90,SW,225,4.0,6.0,74,0.00,,,0.00,VWS V14.01,2013-07-10 19:04:00,
2013-07-10 12:05:00,75.7,66.8,29.90,SW,225,3.0,5.0,74,0.00,,,0.00,VWS V14.01,2013-07-10 19:05:00,
2013-07-10 12:06:00,75.7,66.8,29.90,SSW,202,4.0,6.0,74,0.00,,,0.00,VWS V14.01,2013-07-10 19:06:00,
2013-07-10 12:07:00,75.7,66.8,29.90,SSW,202,2.0,3.0,74,0.00,,,0.00,VWS V14.01,2013-07-10 19:07:00,
2013-07-10 12:08:00,75.7,66.8,29.90,SSW,202,3.0,5.0,74,0.00,,,0.00,VWS V14.01,2013-07-10 19:08:00,
2013-07-10 12:09:00,75.7,66.8,29.90,SE,135,4.0,5.0,74,0.00,,,0.00,VWS V14.01,2013-07-10 19:09:00,
2013-07-10 12:10:00,75.6,66.7,29.90,SSW,202,4.0,5.0,74,0.00,,,0.00,VWS V14.01,2013-07-10 19:10:00,
2013-07-10 12:11:00,75.5,66.6,29.89,SW,225,4.0,5.0,74,0.00,,,0.00,VWS V14.01,2013-07-10 19:11:00,
2013-07-10 12:12:00,75.5,66.6,29.89,South,180,4.0,5.0,74,0.00,,,0.00,VWS V14.01,2013-07-10 19:12:00,
2013-07-10 12:13:00,75.4,66.5,29.89,SSW,202,3.0,4.0,74,0.00,,,0.00,VWS V14.01,2013-07-10 19:13:00,
2013-07-10 12:14:00,75.4,66.5,29.90,South,180,2.0,3.0,74,0.00,,,0.00,VWS V14.01,2013-07-10 19:14:00,
2013-07-10 12:15:00,75.4,66.9,29.89,SE,135,3.0,5.0,75,0.00,,,0.00,VWS V14.01,2013-07-10 19:15:00,
2013-07-10 12:16:00,75.3,66.4,29.90,SSE,158,5.0,7.0,74,0.00,,,0.00,VWS V14.01,2013-07-10 19:16:00,
2013-07-10 12:17:00,75.2,66.3,29.90,SE,135,6.0,9.0,74,0.00,,,0.00,VWS V14.01,2013-07-10 19:17:00,
2013-07-10 12:18:00,75.0,66.2,29.90,South,180,6.0,8.0,74,0.00,,,0.00,VWS V14.01,2013-07-10 19:18:00,
2013-07-10 12:19:00,74.9,66.4,29.90,SSW,202,4.0,7.0,75,0.00,,,0.00,VWS V14.01,2013-07-10 19:19:00,
2013-07-10 12:20:00,74.8,66.3,29.90,SW,225,5.0,7.0,75,0.00,,,0.00,VWS V14.01,2013-07-10 19:20:00,
2013-07-10 12:21:00,74.8,66.3,29.90,SW,225,4.0,5.0,75,0.00,,,0.00,VWS V14.01,2013-07-10 19:21:00,
2013-07-10 12:22:00,74.7,66.6,29.90,SSW,202,3.0,6.0,76,0.00,,,0.00,VWS V14.01,2013-07-10 19:22:00,
2013-07-10 12:23:00,74.7,66.6,29.90,SE,135,2.0,5.0,76,0.00,,,0.00,VWS V14.01,2013-07-10 19:23:00,
2013-07-10 12:24:00,74.7,66.6,29.90,SE,135,3.0,4.0,76,0.00,,,0.00,VWS V14.01,2013-07-10 19:24:00,
2013-07-10 12:25:00,74.7,66.6,29.90,SSW,202,3.0,5.0,76,0.00,,,0.00,VWS V14.01,2013-07-10 19:25:00,
2013-07-10 12:26:00,74.7,66.6,29.90,SE,135,3.0,5.0,76,0.00,,,0.00,VWS V14.01,2013-07-10 19:26:00,
2013-07-10 12:27:00,74.6,66.5,29.90,SSE,158,2.0,4.0,76,0.00,,,0.00,VWS V14.01,2013-07-10 19:27:00,
2013-07-10 12:28:00,74.6,66.5,29.90,SE,135,5.0,9.0,76,0.00,,,0.00,VWS V14.01,2013-07-10 19:28:00,
2013-07-10 12:29:00,74.6,66.5,29.90,SE,135,3.0,6.0,76,0.00,,,0.00,VWS V14.01,2013-07-10 19:29:00,
2013-07-10 12:30:00,74.5,66.4,29.90,SSW,202,3.0,4.0,76,0.00,,,0.00,VWS V14.01,2013-07-10 19:30:00,
2013-07-10 12:31:00,74.5,66.4,29.90,SSW,202,3.0,4.0,76,0.00,,,0.00,VWS V14.01,2013-07-10 19:31:00,
2013-07-10 12:32:00,74.5,66.4,29.90,SSE,158,3.0,7.0,76,0.00,,,0.00,VWS V14.01,2013-07-10 19:32:00,
2013-07-10 12:33:00,74.4,66.3,29.90,SE,135,5.0,7.0,76,0.00,,,0.00,VWS V14.01,2013-07-10 19:33:00,
2013-07-10 12:34:00,74.3,66.6,29.90,SE,135,5.0,6.0,77,0.00,,,0.00,VWS V14.01,2013-07-10 19:34:00,
2013-07-10 12:35:00,74.2,66.5,29.90,ESE,112,3.0,5.0,77,0.00,,,0.00,VWS V14.01,2013-07-10 19:35:00,
2013-07-10 12:36:00,74.1,66.4,29.90,SE,135,3.0,5.0,77,0.00,,,0.00,VWS V14.01,2013-07-10 19:36:00,
2013-07-10 12:37:00,74.1,66.4,29.90,SE,135,5.0,6.0,77,0.00,,,0.00,VWS V14.01,2013-07-10 19:37:00,
2013-07-10 12:38:00,74.0,66.7,29.90,SE,135,5.0,7.0,78,0.00,,,0.00,VWS V14.01,2013-07-10 19:38:00,
2013-07-10 12:39:00,73.9,66.6,29.90,SSW,202,3.0,5.0,78,0.00,,,0.00,VWS V14.01,2013-07-10 19:39:00,
2013-07-10 12:40:00,73.9,66.6,29.90,SSE,158,2.0,5.0,78,0.00,,,0.00,VWS V14.01,2013-07-10 19:40:00,
2013-07-10 12:41:00,73.8,66.5,29.90,SE,135,5.0,7.0,78,0.00,,,0.00,VWS V14.01,2013-07-10 19:41:00,
2013-07-10 12:42:00,73.7,66.4,29.90,SE,135,3.0,6.0,78,0.00,,,0.00,VWS V14.01,2013-07-10 19:42:00,
2013-07-10 12:43:00,73.7,66.8,29.89,SE,135,3.0,4.0,79,0.00,,,0.00,VWS V14.01,2013-07-10 19:43:00,
2013-07-10 12:44:00,73.6,66.7,29.89,SE,135,3.0,5.0,79,0.00,,,0.00,VWS V14.01,2013-07-10 19:44:00,
2013-07-10 12:45:00,73.6,66.7,29.90,SSW,202,3.0,5.0,79,0.00,,,0.00,VWS V14.01,2013-07-10 19:45:00,
2013-07-10 12:46:00,73.5,66.6,29.90,WSW,248,6.0,8.0,79,0.00,,,0.00,VWS V14.01,2013-07-10 19:46:00,
2013-07-10 12:47:00,73.5,66.6,29.89,SW,225,5.0,7.0,79,0.00,,,0.00,VWS V14.01,2013-07-10 19:47:00,
2013-07-10 12:48:00,73.4,66.5,29.89,SSW,202,5.0,8.0,79,0.00,,,0.00,VWS V14.01,2013-07-10 19:48:00,
2013-07-10 12:49:00,73.2,66.3,29.90,South,180,5.0,8.0,79,0.00,,,0.00,VWS V14.01,2013-07-10 19:49:00,
2013-07-10 12:50:00,73.1,66.6,29.90,South,180,4.0,6.0,80,0.00,,,0.00,VWS V14.01,2013-07-10 19:50:00,
2013-07-10 12:51:00,73.0,66.5,29.90,SSE,158,5.0,6.0,80,0.00,,,0.00,VWS V14.01,2013-07-10 19:51:00,
2013-07-10 12:52:00,72.9,66.4,29.89,SSE,158,4.0,6.0,80,0.00,,,0.00,VWS V14.01,2013-07-10 19:52:00,
2013-07-10 12:53:00,72.9,66.7,29.89,SSW,202,4.0,5.0,81,0.00,,,0.00,VWS V14.01,2013-07-10 19:53:00,
2013-07-10 12:54:00,72.8,66.6,29.89,ESE,112,3.0,5.0,81,0.00,,,0.00,VWS V14.01,2013-07-10 19:54:00,
2013-07-10 12:55:00,72.7,66.5,29.89,SSE,158,3.0,5.0,81,0.00,,,0.00,VWS V14.01,2013-07-10 19:55:00,
2013-07-10 12:56:00,72.7,66.5,29.89,SSE,158,4.0,6.0,81,0.00,,,0.00,VWS V14.01,2013-07-10 19:56:00,
2013-07-10 12:57:00,72.6,66.8,29.89,SSE,158,3.0,5.0,82,0.00,,,0.00,VWS V14.01,2013-07-10 19:57:00,
2013-07-10 12:58:00,72.6,66.8,29.89,SSE,158,4.0,6.0,82,0.00,,,0.00,VWS V14.01,2013-07-10 19:58:00,
2013-07-10 12:59:00,72.5,66.7,29.89,South,180,3.0,5.0,82,0.00,,,0.00,VWS V14.01,2013-07-10 19:59:00,
2013-07-10 13:00:00,72.6,66.8,29.89,SSW,202,3.0,4.0,82,0.00,,,0.00,VWS V14.01,2013-07-10 20:00:00,
2013-07-10 13:01:00,72.6,67.2,29.89,WSW,248,4.0,6.0,83,0.00,,,0.00,VWS V14.01,2013-07-10 20:01:00,
2013-07-10 13:02:00,72.6,66.8,29.89,SSW,202,3.0,5.0,82,0.00,,,0.00,VWS V14.01,2013-07-10 20:02:00,
2013-07-10 13:03:00,72.6,66.8,29.89,SSW,202,4.0,7.0,82,0.00,,,0.00,VWS V14.01,2013-07-10 20:03:00,
2013-07-10 13:04:00,72.5,66.7,29.89,South,180,4.0,6.0,82,0.00,,,0.00,VWS V14.01,2013-07-10 20:04:00,
2013-07-10 13:05:00,72.5,66.7,29.89,WSW,248,2.0,4.0,82,0.00,,,0.00,VWS V14.01,2013-07-10 20:05:00,
2013-07-10 13:06:00,72.5,66.7,29.89,SE,135,3.0,4.0,82,0.00,,,0.00,VWS V14.01,2013-07-10 20:06:00,
2013-07-10 13:07:00,72.5,66.7,29.89,SE,135,3.0,4.0,82,0.00,,,0.00,VWS V14.01,2013-07-10 20:07:00,
2013-07-10 13:08:00,72.5,66.7,29.89,SE,135,1.0,2.0,82,0.00,,,0.00,VWS V14.01,2013-07-10 20:08:00,
2013-07-10 13:09:00,72.5,67.1,29.89,ESE,112,1.0,4.0,83,0.00,,,0.00,VWS V14.01,2013-07-10 20:09:00,
2013-07-10 13:10:00,72.6,67.2,29.89,SE,135,2.0,4.0,83,0.00,,,0.00,VWS V14.01,2013-07-10 20:10:00,
2013-07-10 13:11:00,72.7,66.9,29.89,SSE,158,2.0,4.0,82,0.00,,,0.00,VWS V14.01,2013-07-10 20:11:00,
2013-07-10 13:12:00,72.6,66.8,29.89,East,90,3.0,5.0,82,0.00,,,0.00,VWS V14.01,2013-07-10 20:12:00,
2013-07-10 13:13:00,72.6,66.8,29.89,SE,135,4.0,6.0,82,0.00,,,0.00,VWS V14.01,2013-07-10 20:13:00,
2013-07-10 13:14:00,72.6,66.8,29.89,SSE,158,2.0,4.0,82,0.00,,,0.00,VWS V14.01,2013-07-10 20:14:00,
2013-07-10 13:15:00,72.6,66.8,29.89,SE,135,2.0,3.0,82,0.00,,,0.00,VWS V14.01,2013-07-10 20:15:00,
2013-07-10 13:16:00,72.6,66.8,29.89,SE,135,3.0,5.0,82,0.00,,,0.00,VWS V14.01,2013-07-10 20:16:00,
2013-07-10 13:17:00,72.6,66.8,29.89,East,90,2.0,3.0,82,0.00,,,0.00,VWS V14.01,2013-07-10 20:17:00,
2013-07-10 13:18:00,72.7,66.9,29.89,SE,135,2.0,3.0,82,0.00,,,0.00,VWS V14.01,2013-07-10 20:18:00,
2013-07-10 13:19:00,72.7,66.9,29.89,SE,135,2.0,2.0,82,0.00,,,0.00,VWS V14.01,2013-07-10 20:19:00,
2013-07-10 13:20:00,72.8,67.0,29.89,SE,135,3.0,5.0,82,0.00,,,0.00,VWS V14.01,2013-07-10 20:20:00,
2013-07-10 13:21:00,72.8,67.0,29.89,SE,135,3.0,6.0,82,0.00,,,0.00,VWS V14.01,2013-07-10 20:21:00,
2013-07-10 13:22:00,72.8,66.6,29.89,SE,135,3.0,6.0,81,0.00,,,0.00,VWS V14.01,2013-07-10 20:22:00,
2013-07-10 13:23:00,72.8,66.6,29.89,SE,135,4.0,7.0,81,0.00,,,0.00,VWS V14.01,2013-07-10 20:23:00,
2013-07-10 13:24:00,72.8,66.6,29.89,ESE,112,3.0,4.0,81,0.00,,,0.00,VWS V14.01,2013-07-10 20:24:00,
2013-07-10 13:25:00,72.9,66.7,29.89,SE,135,6.0,10.0,81,0.00,,,0.00,VWS V14.01,2013-07-10 20:25:00,
2013-07-10 13:26:00,72.8,66.6,29.89,SSE,158,3.0,5.0,81,0.00,,,0.00,VWS V14.01,2013-07-10 20:26:00,
2013-07-10 13:27:00,72.8,66.6,29.89,SE,135,4.0,5.0,81,0.00,,,0.00,VWS V14.01,2013-07-10 20:27:00,
2013-07-10 13:28:00,72.8,66.6,29.89,SE,135,5.0,7.0,81,0.00,,,0.00,VWS V14.01,2013-07-10 20:28:00,
2013-07-10 13:29:00,72.7,66.5,29.89,SE,135,4.0,6.0,81,0.00,,,0.00,VWS V14.01,2013-07-10 20:29:00,
2013-07-10 13:30:00,72.7,66.5,29.89,SE,135,4.0,5.0,81,0.00,,,0.00,VWS V14.01,2013-07-10 20:30:00,
2013-07-10 13:31:00,72.7,66.5,29.89,SSW,202,4.0,6.0,81,0.00,,,0.00,VWS V14.01,2013-07-10 20:31:00,
2013-07-10 13:32:00,72.7,66.5,29.89,SSE,158,5.0,6.0,81,0.00,,,0.00,VWS V14.01,2013-07-10 20:32:00,
2013-07-10 13:33:00,72.7,66.5,29.89,SSW,202,3.0,4.0,81,0.00,,,0.00,VWS V14.01,2013-07-10 20:33:00,
2013-07-10 13:34:00,72.8,66.6,29.89,SE,135,3.0,4.0,81,0.00,,,0.00,VWS V14.01,2013-07-10 20:34:00,
2013-07-10 13:35:00,72.9,66.7,29.89,SE,135,2.0,3.0,81,0.00,,,0.00,VWS V14.01,2013-07-10 20:35:00,
2013-07-10 13:36:00,73.0,66.8,29.89,ESE,112,4.0,8.0,81,0.00,,,0.00,VWS V14.01,2013-07-10 20:36:00,
2013-07-10 13:37:00,73.1,66.9,29.89,SE,135,6.0,7.0,81,0.00,,,0.00,VWS V14.01,2013-07-10 20:37:00,
2013-07-10 13:38:00,73.0,66.5,29.89,SE,135,5.0,7.0,80,0.00,,,0.00,VWS V14.01,2013-07-10 20:38:00,
2013-07-10 13:39:00,73.0,66.8,29.89,SE,135,4.0,5.0,81,0.00,,,0.00,VWS V14.01,2013-07-10 20:39:00,
2013-07-10 13:40:00,73.1,66.9,29.89,SE,135,2.0,5.0,81,0.00,,,0.00,VWS V14.01,2013-07-10 20:40:00,
2013-07-10 13:41:00,73.2,67.0,29.89,SE,135,4.0,7.0,81,0.00,,,0.00,VWS V14.01,2013-07-10 20:41:00,
2013-07-10 13:42:00,73.3,67.1,29.89,SSW,202,4.0,6.0,81,0.00,,,0.00,VWS V14.01,2013-07-10 20:42:00,
2013-07-10 13:43:00,73.3,66.8,29.89,SSW,202,5.0,6.0,80,0.00,,,0.00,VWS V14.01,2013-07-10 20:43:00,
2013-07-10 13:44:00,73.3,66.8,29.89,SSW,202,5.0,9.0,80,0.00,,,0.00,VWS V14.01,2013-07-10 20:44:00,
2013-07-10 13:45:00,73.4,67.2,29.89,SSW,202,4.0,7.0,81,0.00,,,0.00,VWS V14.01,2013-07-10 20:45:00,
2013-07-10 13:46:00,73.5,67.3,29.89,South,180,3.0,7.0,81,0.00,,,0.00,VWS V14.01,2013-07-10 20:46:00,
2013-07-10 13:47:00,73.6,67.1,29.89,SSW,202,3.0,4.0,80,0.00,,,0.00,VWS V14.01,2013-07-10 20:47:00,
2013-07-10 13:48:00,73.7,67.2,29.89,SE,135,3.0,6.0,80,0.00,,,0.00,VWS V14.01,2013-07-10 20:48:00,
2013-07-10 13:49:00,73.8,67.2,29.89,SSE,158,3.0,5.0,80,0.00,,,0.00,VWS V14.01,2013-07-10 20:49:00,
2013-07-10 13:50:00,73.8,66.9,29.89,SSW,202,5.0,7.0,79,0.00,,,0.00,VWS V14.01,2013-07-10 20:50:00,
2013-07-10 13:51:00,73.9,67.0,29.89,SSE,158,3.0,4.0,79,0.00,,,0.00,VWS V14.01,2013-07-10 20:51:00,
2013-07-10 13:52:00,74.0,67.1,29.89,South,180,3.0,6.0,79,0.00,,,0.00,VWS V14.01,2013-07-10 20:52:00,
2013-07-10 13:53:00,74.1,67.2,29.89,SSW,202,3.0,5.0,79,0.00,,,0.00,VWS V14.01,2013-07-10 20:53:00,
2013-07-10 13:54:00,74.2,67.3,29.89,SSW,202,4.0,7.0,79,0.00,,,0.00,VWS V14.01,2013-07-10 20:54:00,
2013-07-10 13:55:00,74.4,67.5,29.89,East,90,1.0,2.0,79,0.00,,,0.00,VWS V14.01,2013-07-10 20:55:00,
2013-07-10 13:56:00,74.5,67.6,29.89,SW,225,3.0,4.0,79,0.00,,,0.00,VWS V14.01,2013-07-10 20:56:00,
2013-07-10 13:57:00,74.6,67.3,29.89,SW,225,2.0,3.0,78,0.00,,,0.00,VWS V14.01,2013-07-10 20:57:00,
2013-07-10 13:58:00,74.8,67.5,29.89,SSW,202,3.0,6.0,78,0.00,,,0.00,VWS V14.01,2013-07-10 20:58:00,
2013-07-10 13:59:00,74.9,67.6,29.88,WSW,248,3.0,5.0,78,0.00,,,0.00,VWS V14.01,2013-07-10 20:59:00,
2013-07-10 14:00:00,75.1,67.8,29.88,SE,135,3.0,4.0,78,0.00,,,0.00,VWS V14.01,2013-07-10 21:00:00,
2013-07-10 14:01:00,75.3,68.0,29.88,SE,135,2.0,3.0,78,0.00,,,0.00,VWS V14.01,2013-07-10 21:01:00,
2013-07-10 14:02:00,75.6,68.3,29.88,SW,225,2.0,4.0,78,0.00,,,0.00,VWS V14.01,2013-07-10 21:02:00,
2013-07-10 14:03:00,75.9,68.2,29.88,SW,225,3.0,5.0,77,0.00,,,0.00,VWS V14.01,2013-07-10 21:03:00,
2013-07-10 14:04:00,76.1,68.0,29.88,SSE,158,3.0,5.0,76,0.00,,,0.00,VWS V14.01,2013-07-10 21:04:00,
2013-07-10 14:05:00,76.3,67.8,29.88,SE,135,3.0,5.0,75,0.00,,,0.00,VWS V14.01,2013-07-10 21:05:00,
2013-07-10 14:06:00,76.5,67.6,29.88,SSE,158,5.0,7.0,74,0.00,,,0.00,VWS V14.01,2013-07-10 21:06:00,
2013-07-10 14:07:00,76.6,67.3,29.88,South,180,4.0,6.0,73,0.00,,,0.00,VWS V14.01,2013-07-10 21:07:00,
2013-07-10 14:08:00,76.7,67.4,29.88,ESE,112,4.0,6.0,73,0.00,,,0.00,VWS V14.01,2013-07-10 21:08:00,
2013-07-10 14:09:00,76.8,67.5,29.88,ESE,112,4.0,6.0,73,0.00,,,0.00,VWS V14.01,2013-07-10 21:09:00,
2013-07-10 14:10:00,76.9,67.2,29.88,SE,135,4.0,7.0,72,0.00,,,0.00,VWS V14.01,2013-07-10 21:10:00,
2013-07-10 14:11:00,76.9,67.2,29.88,SE,135,3.0,4.0,72,0.00,,,0.00,VWS V14.01,2013-07-10 21:11:00,
2013-07-10 14:12:00,77.1,67.4,29.88,SSW,202,4.0,6.0,72,0.00,,,0.00,VWS V14.01,2013-07-10 21:12:00,
2013-07-10 14:13:00,77.2,67.5,29.88,SSE,158,3.0,5.0,72,0.00,,,0.00,VWS V14.01,2013-07-10 21:13:00,
2013-07-10 14:14:00,77.4,67.3,29.88,SE,135,4.0,6.0,71,0.00,,,0.00,VWS V14.01,2013-07-10 21:14:00,
2013-07-10 14:15:00,77.5,67.4,29.88,SSW,202,3.0,6.0,71,0.00,,,0.00,VWS V14.01,2013-07-10 21:15:00,
2013-07-10 14:16:00,77.6,67.5,29.88,SSE,158,5.0,7.0,71,0.00,,,0.00,VWS V14.01,2013-07-10 21:16:00,
2013-07-10 14:17:00,77.7,67.1,29.88,SSW,202,6.0,9.0,70,0.00,,,0.00,VWS V14.01,2013-07-10 21:17:00,
2013-07-10 14:18:00,77.7,67.1,29.88,SE,135,4.0,7.0,70,0.00,,,0.00,VWS V14.01,2013-07-10 21:18:00,
2013-07-10 14:19:00,77.8,66.8,29.88,SSE,158,6.0,8.0,69,0.00,,,0.00,VWS V14.01,2013-07-10 21:19:00,
2013-07-10 14:20:00,77.9,66.9,29.88,SSE,158,4.0,6.0,69,0.00,,,0.00,VWS V14.01,2013-07-10 21:20:00,
2013-07-10 14:21:00,78.0,67.0,29.88,SSE,158,3.0,4.0,69,0.00,,,0.00,VWS V14.01,2013-07-10 21:21:00,
2013-07-10 14:22:00,78.1,66.7,29.88,SE,135,4.0,5.0,68,0.00,,,0.00,VWS V14.01,2013-07-10 21:22:00,
2013-07-10 14:23:00,78.3,66.9,29.88,SE,135,5.0,7.0,68,0.00,,,0.00,VWS V14.01,2013-07-10 21:23:00,
2013-07-10 14:24:00,78.3,66.9,29.87,SE,135,7.0,9.0,68,0.00,,,0.00,VWS V14.01,2013-07-10 21:24:00,
2013-07-10 14:25:00,78.3,66.0,29.88,SSE,158,6.0,9.0,66,0.00,,,0.00,VWS V14.01,2013-07-10 21:25:00,
2013-07-10 14:26:00,78.3,65.6,29.87,SE,135,5.0,11.0,65,0.00,,,0.00,VWS V14.01,2013-07-10 21:26:00,
2013-07-10 14:27:00,78.3,65.1,29.88,SSE,158,6.0,10.0,64,0.00,,,0.00,VWS V14.01,2013-07-10 21:27:00,
2013-07-10 14:28:00,78.4,65.7,29.87,SE,135,5.0,7.0,65,0.00,,,0.00,VWS V14.01,2013-07-10 21:28:00,
2013-07-10 14:29:00,78.4,65.2,29.87,South,180,3.0,6.0,64,0.00,,,0.00,VWS V14.01,2013-07-10 21:29:00,
2013-07-10 14:30:00,78.5,65.3,29.87,ESE,112,6.0,12.0,64,0.00,,,0.00,VWS V14.01,2013-07-10 21:30:00,
2013-07-10 14:31:00,78.4,65.2,29.87,SE,135,7.0,12.0,64,0.00,,,0.00,VWS V14.01,2013-07-10 21:31:00,
2013-07-10 14:32:00,78.4,65.7,29.87,SE,135,7.0,10.0,65,0.00,,,0.00,VWS V14.01,2013-07-10 21:32:00,
2013-07-10 14:33:00,78.3,65.6,29.87,SSE,158,5.0,7.0,65,0.00,,,0.00,VWS V14.01,2013-07-10 21:33:00,
2013-07-10 14:34:00,78.3,65.6,29.87,SE,135,6.0,10.0,65,0.00,,,0.00,VWS V14.01,2013-07-10 21:34:00,
2013-07-10 14:35:00,78.3,65.1,29.87,ESE,112,7.0,10.0,64,0.00,,,0.00,VWS V14.01,2013-07-10 21:35:00,
2013-07-10 14:36:00,78.3,65.1,29.87,South,180,4.0,5.0,64,0.00,,,0.00,VWS V14.01,2013-07-10 21:36:00,
2013-07-10 14:37:00,78.3,65.1,29.87,SE,135,4.0,6.0,64,0.00,,,0.00,VWS V14.01,2013-07-10 21:37:00,
2013-07-10 14:38:00,78.3,64.7,29.87,SSE,158,4.0,8.0,63,0.00,,,0.00,VWS V14.01,2013-07-10 21:38:00,
2013-07-10 14:39:00,78.4,65.2,29.87,SSE,158,4.0,6.0,64,0.00,,,0.00,VWS V14.01,2013-07-10 21:39:00,
2013-07-10 14:40:00,78.5,65.3,29.87,SSE,158,4.0,6.0,64,0.00,,,0.00,VWS V14.01,2013-07-10 21:40:00,
2013-07-10 14:41:00,78.7,65.5,29.87,SSE,158,3.0,5.0,64,0.00,,,0.00,VWS V14.01,2013-07-10 21:41:00,
2013-07-10 14:42:00,78.8,65.6,29.87,SSW,202,3.0,5.0,64,0.00,,,0.00,VWS V14.01,2013-07-10 21:42:00,
2013-07-10 14:43:00,78.9,65.2,29.87,SE,135,4.0,6.0,63,0.00,,,0.00,VWS V14.01,2013-07-10 21:43:00,
2013-07-10 14:44:00,78.9,65.2,29.87,SE,135,5.0,8.0,63,0.00,,,0.00,VWS V14.01,2013-07-10 21:44:00,
2013-07-10 14:45:00,78.8,64.7,29.87,SE,135,5.0,8.0,62,0.00,,,0.00,VWS V14.01,2013-07-10 21:45:00,
2013-07-10 14:46:00,78.9,64.8,29.87,SSE,158,3.0,5.0,62,0.00,,,0.00,VWS V14.01,2013-07-10 21:46:00,
2013-07-10 14:47:00,78.9,64.8,29.87,SE,135,6.0,8.0,62,0.00,,,0.00,VWS V14.01,2013-07-10 21:47:00,
2013-07-10 14:48:00,78.9,64.8,29.87,SE,135,4.0,7.0,62,0.00,,,0.00,VWS V14.01,2013-07-10 21:48:00,
2013-07-10 14:49:00,78.8,63.8,29.87,SE,135,6.0,8.0,60,0.00,,,0.00,VWS V14.01,2013-07-10 21:49:00,
2013-07-10 14:50:00,78.8,63.3,29.87,SE,135,5.0,9.0,59,0.00,,,0.00,VWS V14.01,2013-07-10 21:50:00,
2013-07-10 14:51:00,78.7,63.7,29.87,SSE,158,5.0,7.0,60,0.00,,,0.00,VWS V14.01,2013-07-10 21:51:00,
2013-07-10 14:52:00,78.8,63.8,29.87,SSE,158,5.0,9.0,60,0.00,,,0.00,VWS V14.01,2013-07-10 21:52:00,
2013-07-10 14:53:00,78.8,63.8,29.87,SSE,158,4.0,7.0,60,0.00,,,0.00,VWS V14.01,2013-07-10 21:53:00,
2013-07-10 14:54:00,78.8,63.3,29.86,SE,135,5.0,11.0,59,0.00,,,0.00,VWS V14.01,2013-07-10 21:54:00,
2013-07-10 14:55:00,78.9,63.4,29.86,SE,135,5.0,6.0,59,0.00,,,0.00,VWS V14.01,2013-07-10 21:55:00,
2013-07-10 14:56:00,78.9,63.4,29.87,SSE,158,4.0,8.0,59,0.00,,,0.00,VWS V14.01,2013-07-10 21:56:00,
2013-07-10 14:57:00,79.0,63.5,29.86,SSW,202,3.0,4.0,59,0.00,,,0.00,VWS V14.01,2013-07-10 21:57:00,
2013-07-10 14:58:00,79.0,63.5,29.87,SE,135,5.0,6.0,59,0.00,,,0.00,VWS V14.01,2013-07-10 21:58:00,
2013-07-10 14:59:00,79.1,63.1,29.87,SSE,158,4.0,5.0,58,0.00,,,0.00,VWS V14.01,2013-07-10 21:59:00,
2013-07-10 15:00:00,79.1,63.1,29.86,SSW,202,4.0,6.0,58,0.00,,,0.00,VWS V14.01,2013-07-10 22:00:00,
2013-07-10 15:01:00,79.1,63.1,29.86,SE,135,3.0,5.0,58,0.00,,,0.00,VWS V14.01,2013-07-10 22:01:00,
2013-07-10 15:02:00,79.2,62.7,29.86,SE,135,4.0,6.0,57,0.00,,,0.00,VWS V14.01,2013-07-10 22:02:00,
2013-07-10 15:03:00,79.2,62.2,29.86,SE,135,5.0,7.0,56,0.00,,,0.00,VWS V14.01,2013-07-10 22:03:00,
2013-07-10 15:04:00,79.2,62.2,29.86,SSW,202,3.0,5.0,56,0.00,,,0.00,VWS V14.01,2013-07-10 22:04:00,
2013-07-10 15:05:00,79.2,62.2,29.86,SW,225,4.0,6.0,56,0.00,,,0.00,VWS V14.01,2013-07-10 22:05:00,
2013-07-10 15:06:00,79.3,62.3,29.86,SW,225,4.0,6.0,56,0.00,,,0.00,VWS V14.01,2013-07-10 22:06:00,
2013-07-10 15:07:00,79.4,62.3,29.86,SSW,202,3.0,5.0,56,0.00,,,0.00,VWS V14.01,2013-07-10 22:07:00,
2013-07-10 15:08:00,79.6,62.5,29.86,SW,225,3.0,4.0,56,0.00,,,0.00,VWS V14.01,2013-07-10 22:08:00,
2013-07-10 15:09:00,79.6,62.5,29.86,SSW,202,3.0,8.0,56,0.00,,,0.00,VWS V14.01,2013-07-10 22:09:00,
2013-07-10 15:10:00,79.7,62.1,29.86,ESE,112,5.0,10.0,55,0.00,,,0.00,VWS V14.01,2013-07-10 22:10:00,
2013-07-10 15:11:00,79.7,61.6,29.86,SE,135,4.0,7.0,54,0.00,,,0.00,VWS V14.01,2013-07-10 22:11:00,
2013-07-10 15:12:00,79.7,62.1,29.86,SSE,158,3.0,4.0,55,0.00,,,0.00,VWS V14.01,2013-07-10 22:12:00,
2013-07-10 15:13:00,79.8,61.7,29.86,SE,135,4.0,8.0,54,0.00,,,0.00,VWS V14.01,2013-07-10 22:13:00,
2013-07-10 15:14:00,79.8,61.7,29.86,SE,135,3.0,6.0,54,0.00,,,0.00,VWS V14.01,2013-07-10 22:14:00,
2013-07-10 15:15:00,79.9,61.8,29.86,SSE,158,4.0,6.0,54,0.00,,,0.00,VWS V14.01,2013-07-10 22:15:00,
2013-07-10 15:16:00,79.9,61.8,29.86,South,180,5.0,9.0,54,0.00,,,0.00,VWS V14.01,2013-07-10 22:16:00,
2013-07-10 15:17:00,80.0,61.9,29.86,South,180,4.0,6.0,54,0.00,,,0.00,VWS V14.01,2013-07-10 22:17:00,
2013-07-10 15:18:00,80.0,61.9,29.86,South,180,5.0,9.0,54,0.00,,,0.00,VWS V14.01,2013-07-10 22:18:00,
2013-07-10 15:19:00,80.0,61.9,29.86,SSW,202,4.0,6.0,54,0.00,,,0.00,VWS V14.01,2013-07-10 22:19:00,
2013-07-10 15:20:00,80.0,62.4,29.86,SSW,202,2.0,3.0,55,0.00,,,0.00,VWS V14.01,2013-07-10 22:20:00,
2013-07-10 15:21:00,80.1,62.5,29.86,SE,135,3.0,5.0,55,0.00,,,0.00,VWS V14.01,2013-07-10 22:21:00,
2013-07-10 15:22:00,80.1,62.0,29.86,SSE,158,4.0,5.0,54,0.00,,,0.00,VWS V14.01,2013-07-10 22:22:00,
2013-07-10 15:23:00,80.1,62.0,29.86,SE,135,5.0,9.0,54,0.00,,,0.00,VWS V14.01,2013-07-10 22:23:00,
2013-07-10 15:24:00,80.1,62.0,29.86,SSE,158,5.0,9.0,54,0.00,,,0.00,VWS V14.01,2013-07-10 22:24:00,
2013-07-10 15:25:00,80.0,61.9,29.86,SE,135,4.0,7.0,54,0.00,,,0.00,VWS V14.01,2013-07-10 22:25:00,
2013-07-10 15:26:00,79.9,61.8,29.86,SSW,202,4.0,7.0,54,0.00,,,0.00,VWS V14.01,2013-07-10 22:26:00,
2013-07-10 15:27:00,79.8,61.7,29.86,SSE,158,4.0,6.0,54,0.00,,,0.00,VWS V14.01,2013-07-10 22:27:00,
2013-07-10 15:28:00,79.8,62.2,29.86,SSW,202,6.0,8.0,55,0.00,,,0.00,VWS V14.01,2013-07-10 22:28:00,
2013-07-10 15:29:00,79.7,62.1,29.86,SSW,202,6.0,8.0,55,0.00,,,0.00,VWS V14.01,2013-07-10 22:29:00,
2013-07-10 15:30:00,79.5,61.4,29.86,SSE,158,6.0,8.0,54,0.00,,,0.00,VWS V14.01,2013-07-10 22:30:00,
2013-07-10 15:31:00,79.4,61.3,29.86,SSE,158,5.0,8.0,54,0.00,,,0.00,VWS V14.01,2013-07-10 22:31:00,
2013-07-10 15:32:00,79.4,60.8,29.86,South,180,5.0,8.0,53,0.00,,,0.00,VWS V14.01,2013-07-10 22:32:00,
2013-07-10 15:33:00,79.4,60.8,29.86,SE,135,5.0,6.0,53,0.00,,,0.00,VWS V14.01,2013-07-10 22:33:00,
2013-07-10 15:34:00,79.4,61.3,29.86,SSE,158,5.0,8.0,54,0.00,,,0.00,VWS V14.01,2013-07-10 22:34:00,
2013-07-10 15:35:00,79.3,60.7,29.86,SW,225,4.0,7.0,53,0.00,,,0.00,VWS V14.01,2013-07-10 22:35:00,
2013-07-10 15:36:00,79.4,60.3,29.85,SSW,202,5.0,9.0,52,0.00,,,0.00,VWS V14.01,2013-07-10 22:36:00,
2013-07-10 15:37:00,79.4,60.3,29.85,South,180,3.0,4.0,52,0.00,,,0.00,VWS V14.01,2013-07-10 22:37:00,
2013-07-10 15:38:00,79.4,60.3,29.85,SE,135,4.0,6.0,52,0.00,,,0.00,VWS V14.01,2013-07-10 22:38:00,
2013-07-10 15:39:00,79.4,59.7,29.85,SE,135,6.0,8.0,51,0.00,,,0.00,VWS V14.01,2013-07-10 22:39:00,
2013-07-10 15:40:00,79.4,59.7,29.85,SSE,158,4.0,7.0,51,0.00,,,0.00,VWS V14.01,2013-07-10 22:40:00,
2013-07-10 15:41:00,79.4,59.7,29.85,SSE,158,4.0,6.0,51,0.00,,,0.00,VWS V14.01,2013-07-10 22:41:00,
2013-07-10 15:42:00,79.4,60.3,29.85,SE,135,4.0,8.0,52,0.00,,,0.00,VWS V14.01,2013-07-10 22:42:00,
2013-07-10 15:43:00,79.4,60.3,29.85,SE,135,4.0,7.0,52,0.00,,,0.00,VWS V14.01,2013-07-10 22:43:00,
2013-07-10 15:44:00,79.4,60.3,29.85,ESE,112,3.0,5.0,52,0.00,,,0.00,VWS V14.01,2013-07-10 22:44:00,
2013-07-10 15:45:00,79.4,60.3,29.85,SE,135,4.0,5.0,52,0.00,,,0.00,VWS V14.01,2013-07-10 22:45:00,
2013-07-10 15:46:00,79.4,60.3,29.85,SSE,158,2.0,4.0,52,0.00,,,0.00,VWS V14.01,2013-07-10 22:46:00,
2013-07-10 15:47:00,79.4,60.3,29.85,SE,135,5.0,8.0,52,0.00,,,0.00,VWS V14.01,2013-07-10 22:47:00,
2013-07-10 15:48:00,79.3,60.2,29.85,SE,135,5.0,7.0,52,0.00,,,0.00,VWS V14.01,2013-07-10 22:48:00,
2013-07-10 15:49:00,79.3,60.2,29.85,South,180,5.0,7.0,52,0.00,,,0.00,VWS V14.01,2013-07-10 22:49:00,
2013-07-10 15:50:00,79.2,60.1,29.85,SE,135,6.0,10.0,52,0.00,,,0.00,VWS V14.01,2013-07-10 22:50:00,
2013-07-10 15:51:00,79.2,60.6,29.85,SE,135,4.0,6.0,53,0.00,,,0.00,VWS V14.01,2013-07-10 22:51:00,
2013-07-10 15:52:00,79.1,60.5,29.85,SE,135,6.0,8.0,53,0.00,,,0.00,VWS V14.01,2013-07-10 22:52:00,
2013-07-10 15:53:00,79.0,61.0,29.85,ESE,112,3.0,6.0,54,0.00,,,0.00,VWS V14.01,2013-07-10 22:53:00,
2013-07-10 15:54:00,79.0,61.0,29.85,SSE,158,3.0,7.0,54,0.00,,,0.00,VWS V14.01,2013-07-10 22:54:00,
2013-07-10 15:55:00,79.0,61.0,29.85,ESE,112,2.0,3.0,54,0.00,,,0.00,VWS V14.01,2013-07-10 22:55:00,
2013-07-10 15:56:00,79.1,61.6,29.85,SSW,202,2.0,2.0,55,0.00,,,0.00,VWS V14.01,2013-07-10 22:56:00,
2013-07-10 15:57:00,79.1,61.6,29.85,SE,135,3.0,6.0,55,0.00,,,0.00,VWS V14.01,2013-07-10 22:57:00,
2013-07-10 15:58:00,79.1,60.5,29.85,SE,135,5.0,8.0,53,0.00,,,0.00,VWS V14.01,2013-07-10 22:58:00,
2013-07-10 15:59:00,79.2,61.7,29.85,SE,135,3.0,4.0,55,0.00,,,0.00,VWS V14.01,2013-07-10 22:59:00,
2013-07-10 16:00:00,79.1,61.6,29.85,ESE,112,5.0,7.0,55,0.00,,,0.00,VWS V14.01,2013-07-10 23:00:00,
2013-07-10 16:01:00,79.0,61.5,29.85,SE,135,5.0,8.0,55,0.00,,,0.00,VWS V14.01,2013-07-10 23:01:00,
2013-07-10 16:02:00,78.9,61.9,29.85,SE,135,6.0,9.0,56,0.00,,,0.00,VWS V14.01,2013-07-10 23:02:00,
2013-07-10 16:03:00,78.7,61.7,29.85,SE,135,5.0,7.0,56,0.00,,,0.00,VWS V14.01,2013-07-10 23:03:00,
2013-07-10 16:04:00,78.6,61.6,29.85,SE,135,3.0,6.0,56,0.00,,,0.00,VWS V14.01,2013-07-10 23:04:00,
2013-07-10 16:05:00,78.6,62.1,29.85,SW,225,2.0,4.0,57,0.00,,,0.00,VWS V14.01,2013-07-10 23:05:00,
2013-07-10 16:06:00,78.6,62.1,29.85,SE,135,3.0,5.0,57,0.00,,,0.00,VWS V14.01,2013-07-10 23:06:00,
2013-07-10 16:07:00,78.6,62.6,29.85,SE,135,6.0,9.0,58,0.00,,,0.00,VWS V14.01,2013-07-10 23:07:00,
2013-07-10 16:08:00,78.5,63.0,29.85,SE,135,4.0,7.0,59,0.00,,,0.00,VWS V14.01,2013-07-10 23:08:00,
2013-07-10 16:09:00,78.4,62.9,29.85,South,180,4.0,6.0,59,0.00,,,0.00,VWS V14.01,2013-07-10 23:09:00,
2013-07-10 16:10:00,78.3,63.3,29.85,SSW,202,3.0,5.0,60,0.00,,,0.00,VWS V14.01,2013-07-10 23:10:00,
2013-07-10 16:11:00,78.3,63.8,29.85,South,180,3.0,4.0,61,0.00,,,0.00,VWS V14.01,2013-07-10 23:11:00,
2013-07-10 16:12:00,78.3,63.8,29.85,SE,135,3.0,6.0,61,0.00,,,0.00,VWS V14.01,2013-07-10 23:12:00,
2013-07-10 16:13:00,78.2,63.7,29.85,SW,225,5.0,6.0,61,0.00,,,0.00,VWS V14.01,2013-07-10 23:13:00,
2013-07-10 16:14:00,78.1,63.1,29.85,SSW,202,3.0,4.0,60,0.00,,,0.00,VWS V14.01,2013-07-10 23:14:00,
2013-07-10 16:15:00,78.0,63.0,29.85,SSW,202,4.0,11.0,60,0.00,,,0.00,VWS V14.01,2013-07-10 23:15:00,
2013-07-10 16:16:00,77.8,61.9,29.85,SW,225,6.0,10.0,58,0.00,,,0.00,VWS V14.01,2013-07-10 23:16:00,
2013-07-10 16:17:00,77.6,61.7,29.85,SSW,202,5.0,7.0,58,0.00,,,0.00,VWS V14.01,2013-07-10 23:17:00,
2013-07-10 16:18:00,77.4,62.0,29.85,SE,135,3.0,6.0,59,0.00,,,0.00,VWS V14.01,2013-07-10 23:18:00,
2013-07-10 16:19:00,77.4,62.0,29.84,SSW,202,2.0,7.0,59,0.00,,,0.00,VWS V14.01,2013-07-10 23:19:00,
2013-07-10 16:20:00,77.3,62.3,29.84,SE,135,5.0,8.0,60,0.00,,,0.00,VWS V14.01,2013-07-10 23:20:00,
2013-07-10 16:21:00,77.1,62.6,29.84,SSE,158,3.0,4.0,61,0.00,,,0.00,VWS V14.01,2013-07-10 23:21:00,
2013-07-10 16:22:00,77.0,62.5,29.84,SW,225,4.0,5.0,61,0.00,,,0.00,VWS V14.01,2013-07-10 23:22:00,
2013-07-10 16:23:00,77.0,63.0,29.84,SW,225,3.0,6.0,62,0.00,,,0.00,VWS V14.01,2013-07-10 23:23:00,
2013-07-10 16:24:00,77.0,63.0,29.84,SSE,158,4.0,5.0,62,0.00,,,0.00,VWS V14.01,2013-07-10 23:24:00,
2013-07-10 16:25:00,77.0,63.0,29.84,SW,225,3.0,6.0,62,0.00,,,0.00,VWS V14.01,2013-07-10 23:25:00,
2013-07-10 16:26:00,76.9,62.9,29.84,SE,135,5.0,7.0,62,0.00,,,0.00,VWS V14.01,2013-07-10 23:26:00,
2013-07-10 16:27:00,76.8,63.3,29.85,SE,135,4.0,6.0,63,0.00,,,0.00,VWS V14.01,2013-07-10 23:27:00,
2013-07-10 16:28:00,76.7,63.2,29.84,SSE,158,3.0,4.0,63,0.00,,,0.00,VWS V14.01,2013-07-10 23:28:00,
2013-07-10 16:29:00,76.7,63.2,29.84,South,180,3.0,5.0,63,0.00,,,0.00,VWS V14.01,2013-07-10 23:29:00,
2013-07-10 16:30:00,76.6,63.5,29.84,SE,135,3.0,6.0,64,0.00,,,0.00,VWS V14.01,2013-07-10 23:30:00,
2013-07-10 16:31:00,76.5,63.4,29.84,SE,135,6.0,9.0,64,0.00,,,0.00,VWS V14.01,2013-07-10 23:31:00,
2013-07-10 16:32:00,76.3,63.2,29.84,SE,135,6.0,9.0,64,0.00,,,0.00,VWS V14.01,2013-07-10 23:32:00,
2013-07-10 16:33:00,76.1,63.0,29.84,SE,135,5.0,8.0,64,0.00,,,0.00,VWS V14.01,2013-07-10 23:33:00,
2013-07-10 16:34:00,76.0,63.4,29.84,SE,135,4.0,6.0,65,0.00,,,0.00,VWS V14.01,2013-07-10 23:34:00,
2013-07-10 16:35:00,75.8,63.2,29.84,SE,135,6.0,9.0,65,0.00,,,0.00,VWS V14.01,2013-07-10 23:35:00,
2013-07-10 16:36:00,75.7,63.5,29.84,ESE,112,4.0,5.0,66,0.00,,,0.00,VWS V14.01,2013-07-10 23:36:00,
2013-07-10 16:37:00,75.6,63.5,29.84,SSW,202,4.0,6.0,66,0.00,,,0.00,VWS V14.01,2013-07-10 23:37:00,
2013-07-10 16:38:00,75.6,63.5,29.84,SW,225,3.0,5.0,66,0.00,,,0.00,VWS V14.01,2013-07-10 23:38:00,
2013-07-10 16:39:00,75.5,63.4,29.84,SE,135,2.0,3.0,66,0.00,,,0.00,VWS V14.01,2013-07-10 23:39:00,
2013-07-10 16:40:00,75.5,63.8,29.84,SE,135,4.0,6.0,67,0.00,,,0.00,VWS V14.01,2013-07-10 23:40:00,
2013-07-10 16:41:00,75.6,63.9,29.84,SE,135,3.0,6.0,67,0.00,,,0.00,VWS V14.01,2013-07-10 23:41:00,
2013-07-10 16:42:00,75.5,63.8,29.84,SE,135,4.0,6.0,67,0.00,,,0.00,VWS V14.01,2013-07-10 23:42:00,
2013-07-10 16:43:00,75.5,63.8,29.84,SSE,158,4.0,5.0,67,0.00,,,0.00,VWS V14.01,2013-07-10 23:43:00,
2013-07-10 16:44:00,75.5,63.8,29.84,SSE,158,2.0,4.0,67,0.00,,,0.00,VWS V14.01,2013-07-10 23:44:00,
2013-07-10 16:45:00,75.5,64.2,29.84,SE,135,3.0,5.0,68,0.00,,,0.00,VWS V14.01,2013-07-10 23:45:00,
2013-07-10 16:46:00,75.5,64.2,29.84,SE,135,3.0,4.0,68,0.00,,,0.00,VWS V14.01,2013-07-10 23:46:00,
2013-07-10 16:47:00,75.5,64.2,29.84,SE,135,4.0,7.0,68,0.00,,,0.00,VWS V14.01,2013-07-10 23:47:00,
2013-07-10 16:48:00,75.5,64.2,29.84,SE,135,3.0,5.0,68,0.00,,,0.00,VWS V14.01,2013-07-10 23:48:00,
2013-07-10 16:49:00,75.4,64.5,29.84,SE,135,3.0,5.0,69,0.00,,,0.00,VWS V14.01,2013-07-10 23:49:00,
2013-07-10 16:50:00,75.4,64.1,29.84,SE,135,5.0,7.0,68,0.00,,,0.00,VWS V14.01,2013-07-10 23:50:00,
2013-07-10 16:51:00,75.3,64.0,29.84,SE,135,4.0,6.0,68,0.00,,,0.00,VWS V14.01,2013-07-10 23:51:00,
2013-07-10 16:52:00,75.2,64.3,29.84,SE,135,3.0,4.0,69,0.00,,,0.00,VWS V14.01,2013-07-10 23:52:00,
2013-07-10 16:53:00,75.1,64.2,29.84,SE,135,3.0,7.0,69,0.00,,,0.00,VWS V14.01,2013-07-10 23:53:00,
2013-07-10 16:54:00,75.1,64.2,29.84,SE,135,5.0,6.0,69,0.00,,,0.00,VWS V14.01,2013-07-10 23:54:00,
2013-07-10 16:55:00,75.0,64.2,29.84,SE,135,6.0,8.0,69,0.00,,,0.00,VWS V14.01,2013-07-10 23:55:00,
2013-07-10 16:56:00,74.9,64.5,29.84,SE,135,5.0,7.0,70,0.00,,,0.00,VWS V14.01,2013-07-10 23:56:00,
2013-07-10 16:57:00,74.7,64.7,29.84,SE,135,3.0,4.0,71,0.00,,,0.00,VWS V14.01,2013-07-10 23:57:00,
2013-07-10 16:58:00,74.7,64.7,29.84,ESE,112,2.0,3.0,71,0.00,,,0.00,VWS V14.01,2013-07-10 23:58:00,
2013-07-10 16:59:00,74.6,64.6,29.84,SE,135,4.0,5.0,71,0.00,,,0.00,VWS V14.01,2013-07-10 23:59:00,
2013-07-10 17:00:00,74.5,64.5,29.84,SE,135,5.0,7.0,71,0.00,,,0.00,VWS V14.01,2013-07-11 00:00:00,
2013-07-10 17:01:00,74.5,64.5,29.83,SE,135,2.0,3.0,71,0.00,,,0.00,VWS V14.01,2013-07-11 00:01:00,
2013-07-10 17:02:00,74.4,64.8,29.83,SSE,158,3.0,5.0,72,0.00,,,0.00,VWS V14.01,2013-07-11 00:02:00,
2013-07-10 17:03:00,74.3,64.7,29.83,SE,135,3.0,4.0,72,0.00,,,0.00,VWS V14.01,2013-07-11 00:03:00,
2013-07-10 17:04:00,74.3,64.7,29.83,SE,135,4.0,6.0,72,0.00,,,0.00,VWS V14.01,2013-07-11 00:04:00,
2013-07-10 17:05:00,74.2,64.6,29.83,SE,135,3.0,6.0,72,0.00,,,0.00,VWS V14.01,2013-07-11 00:05:00,
2013-07-10 17:06:00,74.2,64.2,29.83,SE,135,4.0,5.0,71,0.00,,,0.00,VWS V14.01,2013-07-11 00:06:00,
2013-07-10 17:07:00,74.2,64.6,29.83,ESE,112,2.0,4.0,72,0.00,,,0.00,VWS V14.01,2013-07-11 00:07:00,
2013-07-10 17:08:00,74.2,64.6,29.83,SSE,158,1.0,2.0,72,0.00,,,0.00,VWS V14.01,2013-07-11 00:08:00,
2013-07-10 17:09:00,74.2,64.6,29.83,SE,135,2.0,3.0,72,0.00,,,0.00,VWS V14.01,2013-07-11 00:09:00,
2013-07-10 17:10:00,74.3,64.7,29.83,East,90,2.0,3.0,72,0.00,,,0.00,VWS V14.01,2013-07-11 00:10:00,
2013-07-10 17:11:00,74.4,64.8,29.83,SE,135,2.0,3.0,72,0.00,,,0.00,VWS V14.01,2013-07-11 00:11:00,
2013-07-10 17:12:00,74.4,64.8,29.83,SE,135,1.0,2.0,72,0.00,,,0.00,VWS V14.01,2013-07-11 00:12:00,
2013-07-10 17:13:00,74.4,64.4,29.83,ESE,112,3.0,5.0,71,0.00,,,0.00,VWS V14.01,2013-07-11 00:13:00,
2013-07-10 17:14:00,74.4,64.4,29.83,ESE,112,3.0,4.0,71,0.00,,,0.00,VWS V14.01,2013-07-11 00:14:00,
2013-07-10 17:15:00,74.4,64.8,29.83,SE,135,2.0,3.0,72,0.00,,,0.00,VWS V14.01,2013-07-11 00:15:00,
2013-07-10 17:16:00,74.4,64.4,29.83,SE,135,1.0,3.0,71,0.00,,,0.00,VWS V14.01,2013-07-11 00:16:00,
2013-07-10 17:17:00,74.4,64.8,29.83,SE,135,3.0,6.0,72,0.00,,,0.00,VWS V14.01,2013-07-11 00:17:00,
2013-07-10 17:18:00,74.4,64.8,29.83,SSE,158,2.0,4.0,72,0.00,,,0.00,VWS V14.01,2013-07-11 00:18:00,
2013-07-10 17:19:00,74.4,64.8,29.83,ESE,112,1.0,2.0,72,0.00,,,0.00,VWS V14.01,2013-07-11 00:19:00,
2013-07-10 17:20:00,74.4,64.8,29.83,SSE,158,2.0,3.0,72,0.00,,,0.00,VWS V14.01,2013-07-11 00:20:00,
2013-07-10 17:21:00,74.4,64.8,29.83,SE,135,2.0,3.0,72,0.00,,,0.00,VWS V14.01,2013-07-11 00:21:00,
2013-07-10 17:22:00,74.3,64.7,29.83,SE,135,3.0,5.0,72,0.00,,,0.00,VWS V14.01,2013-07-11 00:22:00,
2013-07-10 17:23:00,74.3,64.7,29.83,SE,135,4.0,6.0,72,0.00,,,0.00,VWS V14.01,2013-07-11 00:23:00,
2013-07-10 17:24:00,74.2,64.6,29.83,SSW,202,2.0,3.0,72,0.00,,,0.00,VWS V14.01,2013-07-11 00:24:00,
2013-07-10 17:25:00,74.3,64.7,29.83,SE,135,3.0,5.0,72,0.00,,,0.00,VWS V14.01,2013-07-11 00:25:00,
2013-07-10 17:26:00,74.2,64.6,29.83,SE,135,4.0,6.0,72,0.00,,,0.00,VWS V14.01,2013-07-11 00:26:00,
2013-07-10 17:27:00,74.1,64.5,29.82,SE,135,5.0,6.0,72,0.00,,,0.00,VWS V14.01,2013-07-11 00:27:00,
2013-07-10 17:28:00,74.0,64.8,29.82,SE,135,3.0,5.0,73,0.00,,,0.00,VWS V14.01,2013-07-11 00:28:00,
2013-07-10 17:29:00,74.0,64.8,29.83,SE,135,2.0,4.0,73,0.00,,,0.00,VWS V14.01,2013-07-11 00:29:00,
2013-07-10 17:30:00,74.0,64.8,29.82,SE,135,3.0,5.0,73,0.00,,,0.00,VWS V14.01,2013-07-11 00:30:00,
2013-07-10 17:31:00,73.9,64.7,29.83,SE,135,4.0,5.0,73,0.00,,,0.00,VWS V14.01,2013-07-11 00:31:00,
2013-07-10 17:32:00,73.9,65.1,29.83,SE,135,4.0,6.0,74,0.00,,,0.00,VWS V14.01,2013-07-11 00:32:00,
2013-07-10 17:33:00,73.8,65.0,29.83,SE,135,5.0,6.0,74,0.00,,,0.00,VWS V14.01,2013-07-11 00:33:00,
2013-07-10 17:34:00,73.7,64.9,29.83,SE,135,5.0,7.0,74,0.00,,,0.00,VWS V14.01,2013-07-11 00:34:00,
2013-07-10 17:35:00,73.6,64.8,29.83,SE,135,5.0,6.0,74,0.00,,,0.00,VWS V14.01,2013-07-11 00:35:00,
2013-07-10 17:36:00,73.5,64.7,29.83,SE,135,4.0,6.0,74,0.00,,,0.00,VWS V14.01,2013-07-11 00:36:00,
2013-07-10 17:37:00,73.5,64.7,29.83,SE,135,4.0,5.0,74,0.00,,,0.00,VWS V14.01,2013-07-11 00:37:00,
2013-07-10 17:38:00,73.4,65.0,29.83,SSE,158,4.0,6.0,75,0.00,,,0.00,VWS V14.01,2013-07-11 00:38:00,
2013-07-10 17:39:00,73.4,65.0,29.83,SSE,158,3.0,4.0,75,0.00,,,0.00,VWS V14.01,2013-07-11 00:39:00,
2013-07-10 17:40:00,73.4,65.0,29.83,SE,135,3.0,5.0,75,0.00,,,0.00,VWS V14.01,2013-07-11 00:40:00,
2013-07-10 17:41:00,73.4,65.0,29.83,SE,135,3.0,5.0,75,0.00,,,0.00,VWS V14.01,2013-07-11 00:41:00,
2013-07-10 17:42:00,73.3,64.9,29.83,SE,135,3.0,5.0,75,0.00,,,0.00,VWS V14.01,2013-07-11 00:42:00,
2013-07-10 17:43:00,73.3,64.9,29.83,SE,135,4.0,6.0,75,0.00,,,0.00,VWS V14.01,2013-07-11 00:43:00,
2013-07-10 17:44:00,73.3,64.9,29.83,SE,135,4.0,7.0,75,0.00,,,0.00,VWS V14.01,2013-07-11 00:44:00,
2013-07-10 17:45:00,73.2,65.2,29.83,SE,135,4.0,6.0,76,0.00,,,0.00,VWS V14.01,2013-07-11 00:45:00,
2013-07-10 17:46:00,73.1,65.1,29.83,SE,135,3.0,4.0,76,0.00,,,0.00,VWS V14.01,2013-07-11 00:46:00,
2013-07-10 17:47:00,73.1,65.1,29.83,SSW,202,2.0,4.0,76,0.00,,,0.00,VWS V14.01,2013-07-11 00:47:00,
2013-07-10 17:48:00,73.0,65.0,29.83,SSW,202,3.0,6.0,76,0.00,,,0.00,VWS V14.01,2013-07-11 00:48:00,
2013-07-10 17:49:00,73.0,65.0,29.83,South,180,2.0,4.0,76,0.00,,,0.00,VWS V14.01,2013-07-11 00:49:00,
2013-07-10 17:50:00,72.9,64.9,29.82,SSE,158,2.0,3.0,76,0.00,,,0.00,VWS V14.01,2013-07-11 00:50:00,
2013-07-10 17:51:00,72.9,64.9,29.82,SE,135,3.0,5.0,76,0.00,,,0.00,VWS V14.01,2013-07-11 00:51:00,
2013-07-10 17:52:00,72.8,64.8,29.82,SE,135,3.0,4.0,76,0.00,,,0.00,VWS V14.01,2013-07-11 00:52:00,
2013-07-10 17:53:00,72.8,64.8,29.82,SSE,158,3.0,4.0,76,0.00,,,0.00,VWS V14.01,2013-07-11 00:53:00,
2013-07-10 17:54:00,72.8,64.8,29.82,SE,135,2.0,5.0,76,0.00,,,0.00,VWS V14.01,2013-07-11 00:54:00,
2013-07-10 17:55:00,72.7,64.7,29.82,WSW,248,3.0,4.0,76,0.00,,,0.00,VWS V14.01,2013-07-11 00:55:00,
2013-07-10 17:56:00,72.7,64.7,29.82,SW,225,2.0,3.0,76,0.00,,,0.00,VWS V14.01,2013-07-11 00:56:00,
2013-07-10 17:57:00,72.7,64.7,29.82,SSW,202,4.0,7.0,76,0.00,,,0.00,VWS V14.01,2013-07-11 00:57:00,
2013-07-10 17:58:00,72.6,64.6,29.82,SSE,158,4.0,5.0,76,0.00,,,0.00,VWS V14.01,2013-07-11 00:58:00,
2013-07-10 17:59:00,72.6,64.6,29.82,East,90,2.0,4.0,76,0.00,,,0.00,VWS V14.01,2013-07-11 00:59:00,
2013-07-10 18:00:00,72.5,64.5,29.82,South,180,2.0,3.0,76,0.00,,,0.00,VWS V14.01,2013-07-11 01:00:00,
2013-07-10 18:01:00,72.5,64.5,29.83,ESE,112,4.0,6.0,76,0.00,,,0.00,VWS V14.01,2013-07-11 01:01:00,
2013-07-10 18:02:00,72.4,64.8,29.83,SE,135,4.0,6.0,77,0.00,,,0.00,VWS V14.01,2013-07-11 01:02:00,
2013-07-10 18:03:00,72.4,64.8,29.82,SE,135,3.0,5.0,77,0.00,,,0.00,VWS V14.01,2013-07-11 01:03:00,
2013-07-10 18:04:00,72.3,64.7,29.83,ESE,112,2.0,3.0,77,0.00,,,0.00,VWS V14.01,2013-07-11 01:04:00,
2013-07-10 18:05:00,72.3,64.7,29.82,SW,225,2.0,3.0,77,0.00,,,0.00,VWS V14.01,2013-07-11 01:05:00,
2013-07-10 18:06:00,72.3,64.7,29.82,South,180,2.0,3.0,77,0.00,,,0.00,VWS V14.01,2013-07-11 01:06:00,
2013-07-10 18:07:00,72.3,64.7,29.82,SSW,202,2.0,3.0,77,0.00,,,0.00,VWS V14.01,2013-07-11 01:07:00,
2013-07-10 18:08:00,72.3,64.7,29.83,SW,225,1.0,3.0,77,0.00,,,0.00,VWS V14.01,2013-07-11 01:08:00,
2013-07-10 18:09:00,72.3,65.1,29.83,SSE,158,1.0,4.0,78,0.00,,,0.00,VWS V14.01,2013-07-11 01:09:00,
2013-07-10 18:10:00,72.3,65.1,29.83,South,180,2.0,3.0,78,0.00,,,0.00,VWS V14.01,2013-07-11 01:10:00,
2013-07-10 18:11:00,72.4,65.2,29.83,SE,135,2.0,3.0,78,0.00,,,0.00,VWS V14.01,2013-07-11 01:11:00,
2013-07-10 18:12:00,72.3,65.1,29.83,SE,135,3.0,3.0,78,0.00,,,0.00,VWS V14.01,2013-07-11 01:12:00,
2013-07-10 18:13:00,72.3,65.1,29.82,ESE,112,2.0,3.0,78,0.00,,,0.00,VWS V14.01,2013-07-11 01:13:00,
2013-07-10 18:14:00,72.2,65.0,29.82,SE,135,2.0,3.0,78,0.00,,,0.00,VWS V14.01,2013-07-11 01:14:00,
2013-07-10 18:15:00,72.2,65.0,29.83,SSE,158,2.0,4.0,78,0.00,,,0.00,VWS V14.01,2013-07-11 01:15:00,
2013-07-10 18:16:00,72.2,65.0,29.83,SW,225,3.0,4.0,78,0.00,,,0.00,VWS V14.01,2013-07-11 01:16:00,
2013-07-10 18:17:00,72.1,64.9,29.82,SW,225,2.0,3.0,78,0.00,,,0.00,VWS V14.01,2013-07-11 01:17:00,
2013-07-10 18:18:00,72.1,64.9,29.83,SSE,158,2.0,3.0,78,0.00,,,0.00,VWS V14.01,2013-07-11 01:18:00,
2013-07-10 18:19:00,72.1,64.9,29.83,ESE,112,4.0,5.0,78,0.00,,,0.00,VWS V14.01,2013-07-11 01:19:00,
2013-07-10 18:20:00,72.1,64.9,29.83,SE,135,4.0,5.0,78,0.00,,,0.00,VWS V14.01,2013-07-11 01:20:00,
2013-07-10 18:21:00,72.0,64.8,29.83,SE,135,5.0,7.0,78,0.00,,,0.00,VWS V14.01,2013-07-11 01:21:00,
2013-07-10 18:22:00,71.9,64.7,29.83,SE,135,4.0,5.0,78,0.00,,,0.00,VWS V14.01,2013-07-11 01:22:00,
2013-07-10 18:23:00,71.8,64.6,29.83,SE,135,3.0,4.0,78,0.00,,,0.00,VWS V14.01,2013-07-11 01:23:00,
2013-07-10 18:24:00,71.8,64.6,29.83,SE,135,2.0,3.0,78,0.00,,,0.00,VWS V14.01,2013-07-11 01:24:00,
2013-07-10 18:25:00,71.7,64.5,29.83,ESE,112,3.0,4.0,78,0.00,,,0.00,VWS V14.01,2013-07-11 01:25:00,
2013-07-10 18:26:00,71.6,64.4,29.83,ESE,112,3.0,5.0,78,0.00,,,0.00,VWS V14.01,2013-07-11 01:26:00,
2013-07-10 18:27:00,71.6,64.8,29.83,SE,135,2.0,5.0,79,0.00,,,0.00,VWS V14.01,2013-07-11 01:27:00,
2013-07-10 18:28:00,71.5,64.7,29.83,SE,135,2.0,6.0,79,0.00,,,0.00,VWS V14.01,2013-07-11 01:28:00,
2013-07-10 18:29:00,71.5,64.7,29.83,SE,135,3.0,4.0,79,0.00,,,0.00,VWS V14.01,2013-07-11 01:29:00,
2013-07-10 18:30:00,71.4,64.6,29.83,SE,135,2.0,3.0,79,0.00,,,0.00,VWS V14.01,2013-07-11 01:30:00,
2013-07-10 18:31:00,71.4,64.6,29.83,SE,135,3.0,4.0,79,0.00,,,0.00,VWS V14.01,2013-07-11 01:31:00,
2013-07-10 18:32:00,71.3,64.5,29.83,ESE,112,3.0,4.0,79,0.00,,,0.00,VWS V14.01,2013-07-11 01:32:00,
2013-07-10 18:33:00,71.3,64.8,29.83,SE,135,3.0,4.0,80,0.00,,,0.00,VWS V14.01,2013-07-11 01:33:00,
2013-07-10 18:34:00,71.3,64.8,29.83,ESE,112,2.0,2.0,80,0.00,,,0.00,VWS V14.01,2013-07-11 01:34:00,
2013-07-10 18:35:00,71.2,64.7,29.83,ESE,112,2.0,3.0,80,0.00,,,0.00,VWS V14.01,2013-07-11 01:35:00,
2013-07-10 18:36:00,71.2,64.7,29.83,ESE,112,1.0,3.0,80,0.00,,,0.00,VWS V14.01,2013-07-11 01:36:00,
2013-07-10 18:37:00,71.2,64.7,29.83,ESE,112,2.0,4.0,80,0.00,,,0.00,VWS V14.01,2013-07-11 01:37:00,
2013-07-10 18:38:00,71.2,64.7,29.83,ESE,112,2.0,3.0,80,0.00,,,0.00,VWS V14.01,2013-07-11 01:38:00,
2013-07-10 18:39:00,71.1,64.6,29.83,East,90,2.0,3.0,80,0.00,,,0.00,VWS V14.01,2013-07-11 01:39:00,
2013-07-10 18:40:00,71.1,64.6,29.83,ENE,68,1.0,2.0,80,0.00,,,0.00,VWS V14.01,2013-07-11 01:40:00,
2013-07-10 18:41:00,71.1,64.6,29.83,ENE,68,1.0,2.0,80,0.00,,,0.00,VWS V14.01,2013-07-11 01:41:00,
2013-07-10 18:42:00,71.1,64.6,29.83,East,90,2.0,2.0,80,0.00,,,0.00,VWS V14.01,2013-07-11 01:42:00,
2013-07-10 18:43:00,71.1,64.6,29.83,ENE,68,2.0,3.0,80,0.00,,,0.00,VWS V14.01,2013-07-11 01:43:00,
2013-07-10 18:44:00,71.1,64.6,29.82,SSE,158,1.0,2.0,80,0.00,,,0.00,VWS V14.01,2013-07-11 01:44:00,
2013-07-10 18:45:00,71.1,64.6,29.82,ESE,112,1.0,2.0,80,0.00,,,0.00,VWS V14.01,2013-07-11 01:45:00,
2013-07-10 18:46:00,71.1,64.6,29.82,East,90,1.0,1.0,80,0.00,,,0.00,VWS V14.01,2013-07-11 01:46:00,
2013-07-10 18:47:00,71.1,64.6,29.82,East,90,1.0,2.0,80,0.00,,,0.00,VWS V14.01,2013-07-11 01:47:00,
2013-07-10 18:48:00,71.1,64.6,29.83,ESE,112,1.0,2.0,80,0.00,,,0.00,VWS V14.01,2013-07-11 01:48:00,
2013-07-10 18:49:00,71.2,64.7,29.82,East,90,1.0,2.0,80,0.00,,,0.00,VWS V14.01,2013-07-11 01:49:00,
2013-07-10 18:50:00,71.2,64.7,29.82,SE,135,1.0,1.0,80,0.00,,,0.00,VWS V14.01,2013-07-11 01:50:00,
2013-07-10 18:51:00,71.2,64.7,29.82,SE,135,1.0,1.0,80,0.00,,,0.00,VWS V14.01,2013-07-11 01:51:00,
2013-07-10 18:52:00,71.2,64.7,29.83,ESE,112,2.0,3.0,80,0.00,,,0.00,VWS V14.01,2013-07-11 01:52:00,
2013-07-10 18:53:00,71.3,64.8,29.83,ESE,112,2.0,3.0,80,0.00,,,0.00,VWS V14.01,2013-07-11 01:53:00,
2013-07-10 18:54:00,71.3,64.8,29.83,SE,135,2.0,2.0,80,0.00,,,0.00,VWS V14.01,2013-07-11 01:54:00,
2013-07-10 18:55:00,71.3,64.8,29.83,SE,135,1.0,3.0,80,0.00,,,0.00,VWS V14.01,2013-07-11 01:55:00,
2013-07-10 18:56:00,71.3,64.8,29.83,SE,135,1.0,2.0,80,0.00,,,0.00,VWS V14.01,2013-07-11 01:56:00,
2013-07-10 18:57:00,71.3,64.8,29.83,ESE,112,1.0,2.0,80,0.00,,,0.00,VWS V14.01,2013-07-11 01:57:00,
2013-07-10 18:58:00,71.3,64.8,29.82,SE,135,1.0,2.0,80,0.00,,,0.00,VWS V14.01,2013-07-11 01:58:00,
2013-07-10 18:59:00,71.2,64.7,29.82,ESE,112,1.0,1.0,80,0.00,,,0.00,VWS V14.01,2013-07-11 01:59:00,
2013-07-10 19:00:00,71.2,64.7,29.82,SSW,202,1.0,2.0,80,0.00,,,0.00,VWS V14.01,2013-07-11 02:00:00,
2013-07-10 19:01:00,71.2,64.7,29.82,SSW,202,1.0,2.0,80,0.00,,,0.00,VWS V14.01,2013-07-11 02:01:00,
2013-07-10 19:02:00,71.2,64.7,29.82,SSW,202,1.0,2.0,80,0.00,,,0.00,VWS V14.01,2013-07-11 02:02:00,
2013-07-10 19:03:00,71.2,64.7,29.82,South,180,1.0,2.0,80,0.00,,,0.00,VWS V14.01,2013-07-11 02:03:00,
2013-07-10 19:04:00,71.2,64.7,29.82,SSW,202,1.0,1.0,80,0.00,,,0.00,VWS V14.01,2013-07-11 02:04:00,
2013-07-10 19:05:00,71.1,64.6,29.82,ESE,112,1.0,1.0,80,0.00,,,0.00,VWS V14.01,2013-07-11 02:05:00,
2013-07-10 19:06:00,71.2,64.7,29.82,ESE,112,0.0,0.0,80,0.00,,,0.00,VWS V14.01,2013-07-11 02:06:00,
2013-07-10 19:07:00,71.2,64.7,29.82,ESE,112,0.0,1.0,80,0.00,,,0.00,VWS V14.01,2013-07-11 02:07:00,
2013-07-10 19:08:00,71.2,64.7,29.82,SSW,202,1.0,1.0,80,0.00,,,0.00,VWS V14.01,2013-07-11 02:08:00,
2013-07-10 19:09:00,71.1,64.6,29.82,SSW,202,0.0,1.0,80,0.00,,,0.00,VWS V14.01,2013-07-11 02:09:00,
2013-07-10 19:10:00,71.1,64.6,29.82,SSW,202,0.0,1.0,80,0.00,,,0.00,VWS V14.01,2013-07-11 02:10:00,
2013-07-10 19:11:00,71.1,64.6,29.82,SSW,202,0.0,0.0,80,0.00,,,0.00,VWS V14.01,2013-07-11 02:11:00,
2013-07-10 19:12:00,71.1,64.6,29.82,SSW,202,0.0,0.0,80,0.00,,,0.00,VWS V14.01,2013-07-11 02:12:00,
2013-07-10 19:13:00,71.1,64.6,29.82,ESE,112,1.0,2.0,80,0.00,,,0.00,VWS V14.01,2013-07-11 02:13:00,
2013-07-10 19:14:00,71.1,64.6,29.82,ESE,112,2.0,2.0,80,0.00,,,0.00,VWS V14.01,2013-07-11 02:14:00,
2013-07-10 19:15:00,71.1,64.6,29.82,SE,135,2.0,3.0,80,0.00,,,0.00,VWS V14.01,2013-07-11 02:15:00,
2013-07-10 19:16:00,71.1,64.6,29.82,SE,135,2.0,3.0,80,0.00,,,0.00,VWS V14.01,2013-07-11 02:16:00,
2013-07-10 19:17:00,71.1,64.6,29.82,SE,135,2.0,3.0,80,0.00,,,0.00,VWS V14.01,2013-07-11 02:17:00,
2013-07-10 19:18:00,71.1,65.0,29.82,SSE,158,2.0,3.0,81,0.00,,,0.00,VWS V14.01,2013-07-11 02:18:00,
2013-07-10 19:19:00,71.1,65.0,29.82,South,180,1.0,1.0,81,0.00,,,0.00,VWS V14.01,2013-07-11 02:19:00,
2013-07-10 19:20:00,71.1,65.0,29.82,SSW,202,1.0,1.0,81,0.00,,,0.00,VWS V14.01,2013-07-11 02:20:00,
2013-07-10 19:21:00,71.1,65.0,29.83,SSE,158,1.0,1.0,81,0.00,,,0.00,VWS V14.01,2013-07-11 02:21:00,
2013-07-10 19:22:00,71.1,65.0,29.82,SE,135,1.0,1.0,81,0.00,,,0.00,VWS V14.01,2013-07-11 02:22:00,
2013-07-10 19:23:00,71.2,65.1,29.82,SE,135,0.0,1.0,81,0.00,,,0.00,VWS V14.01,2013-07-11 02:23:00,
2013-07-10 19:24:00,71.2,65.1,29.82,SSW,202,1.0,2.0,81,0.00,,,0.00,VWS V14.01,2013-07-11 02:24:00,
2013-07-10 19:25:00,71.2,65.1,29.83,ESE,112,2.0,2.0,81,0.00,,,0.00,VWS V14.01,2013-07-11 02:25:00,
2013-07-10 19:26:00,71.2,65.1,29.82,ESE,112,0.0,1.0,81,0.00,,,0.00,VWS V14.01,2013-07-11 02:26:00,
2013-07-10 19:27:00,71.2,65.1,29.82,SE,135,1.0,3.0,81,0.00,,,0.00,VWS V14.01,2013-07-11 02:27:00,
2013-07-10 19:28:00,71.2,65.1,29.82,SE,135,0.0,0.0,81,0.00,,,0.00,VWS V14.01,2013-07-11 02:28:00,
2013-07-10 19:29:00,71.2,65.1,29.82,SE,135,0.0,1.0,81,0.00,,,0.00,VWS V14.01,2013-07-11 02:29:00,
2013-07-10 19:30:00,71.2,65.1,29.82,SSW,202,0.0,1.0,81,0.00,,,0.00,VWS V14.01,2013-07-11 02:30:00,
2013-07-10 19:31:00,71.2,65.1,29.82,WSW,248,1.0,2.0,81,0.00,,,0.00,VWS V14.01,2013-07-11 02:31:00,
2013-07-10 19:32:00,71.2,65.1,29.82,West,270,1.0,2.0,81,0.00,,,0.00,VWS V14.01,2013-07-11 02:32:00,
2013-07-10 19:33:00,71.2,65.1,29.82,West,270,2.0,2.0,81,0.00,,,0.00,VWS V14.01,2013-07-11 02:33:00,
2013-07-10 19:34:00,71.1,65.0,29.82,West,270,1.0,2.0,81,0.00,,,0.00,VWS V14.01,2013-07-11 02:34:00,
2013-07-10 19:35:00,71.1,65.0,29.82,West,270,1.0,2.0,81,0.00,,,0.00,VWS V14.01,2013-07-11 02:35:00,
2013-07-10 19:36:00,71.0,65.2,29.82,SW,225,1.0,2.0,82,0.00,,,0.00,VWS V14.01,2013-07-11 02:36:00,
2013-07-10 19:37:00,71.0,65.2,29.82,SW,225,1.0,2.0,82,0.00,,,0.00,VWS V14.01,2013-07-11 02:37:00,
2013-07-10 19:38:00,71.0,65.2,29.82,WSW,248,1.0,2.0,82,0.00,,,0.00,VWS V14.01,2013-07-11 02:38:00,
2013-07-10 19:39:00,70.9,65.1,29.82,WSW,248,0.0,1.0,82,0.00,,,0.00,VWS V14.01,2013-07-11 02:39:00,
2013-07-10 19:40:00,70.9,65.1,29.82,WSW,248,0.0,0.0,82,0.00,,,0.00,VWS V14.01,2013-07-11 02:40:00,
2013-07-10 19:41:00,70.8,65.0,29.82,WSW,248,0.0,1.0,82,0.00,,,0.00,VWS V14.01,2013-07-11 02:41:00,
2013-07-10 19:42:00,70.8,65.0,29.82,WSW,248,0.0,0.0,82,0.00,,,0.00,VWS V14.01,2013-07-11 02:42:00,
2013-07-10 19:43:00,70.8,65.0,29.82,WSW,248,0.0,1.0,82,0.00,,,0.00,VWS V14.01,2013-07-11 02:43:00,
2013-07-10 19:44:00,70.8,65.0,29.82,SW,225,1.0,1.0,82,0.00,,,0.00,VWS V14.01,2013-07-11 02:44:00,
2013-07-10 19:45:00,70.8,65.0,29.82,WSW,248,1.0,2.0,82,0.00,,,0.00,VWS V14.01,2013-07-11 02:45:00,
2013-07-10 19:46:00,70.8,65.0,29.82,WSW,248,0.0,1.0,82,0.00,,,0.00,VWS V14.01,2013-07-11 02:46:00,
2013-07-10 19:47:00,70.8,65.4,29.82,SW,225,1.0,2.0,83,0.00,,,0.00,VWS V14.01,2013-07-11 02:47:00,
2013-07-10 19:48:00,70.8,65.4,29.82,SW,225,1.0,2.0,83,0.00,,,0.00,VWS V14.01,2013-07-11 02:48:00,
2013-07-10 19:49:00,70.8,65.4,29.82,SW,225,1.0,1.0,83,0.00,,,0.00,VWS V14.01,2013-07-11 02:49:00,
2013-07-10 19:50:00,70.8,65.4,29.82,West,270,0.0,1.0,83,0.00,,,0.00,VWS V14.01,2013-07-11 02:50:00,
2013-07-10 19:51:00,70.8,65.4,29.82,SSW,202,1.0,1.0,83,0.00,,,0.00,VWS V14.01,2013-07-11 02:51:00,
2013-07-10 19:52:00,70.8,65.4,29.82,WSW,248,1.0,2.0,83,0.00,,,0.00,VWS V14.01,2013-07-11 02:52:00,
2013-07-10 19:53:00,70.9,65.5,29.82,WSW,248,2.0,3.0,83,0.00,,,0.00,VWS V14.01,2013-07-11 02:53:00,
2013-07-10 19:54:00,70.9,65.5,29.82,West,270,2.0,4.0,83,0.00,,,0.00,VWS V14.01,2013-07-11 02:54:00,
2013-07-10 19:55:00,70.8,65.0,29.82,West,270,3.0,3.0,82,0.00,,,0.00,VWS V14.01,2013-07-11 02:55:00,
2013-07-10 19:56:00,70.7,65.3,29.82,WSW,248,2.0,4.0,83,0.00,,,0.00,VWS V14.01,2013-07-11 02:56:00,
2013-07-10 19:57:00,70.7,65.3,29.82,West,270,2.0,4.0,83,0.00,,,0.00,VWS V14.01,2013-07-11 02:57:00,
2013-07-10 19:58:00,70.7,65.3,29.82,West,270,1.0,2.0,83,0.00,,,0.00,VWS V14.01,2013-07-11 02:58:00,
2013-07-10 19:59:00,70.7,65.3,29.82,West,270,0.0,1.0,83,0.00,,,0.00,VWS V14.01,2013-07-11 02:59:00,
2013-07-10 20:00:00,70.6,65.2,29.82,West,270,0.0,1.0,83,0.00,,,0.00,VWS V14.01,2013-07-11 03:00:00,
2013-07-10 20:01:00,70.6,65.2,29.82,SW,225,1.0,3.0,83,0.00,,,0.00,VWS V14.01,2013-07-11 03:01:00,
2013-07-10 20:02:00,70.6,65.2,29.82,SW,225,1.0,2.0,83,0.00,,,0.00,VWS V14.01,2013-07-11 03:02:00,
2013-07-10 20:03:00,70.6,65.2,29.82,SW,225,1.0,2.0,83,0.00,,,0.00,VWS V14.01,2013-07-11 03:03:00,
2013-07-10 20:04:00,70.6,65.2,29.83,SW,225,1.0,1.0,83,0.00,,,0.00,VWS V14.01,2013-07-11 03:04:00,
2013-07-10 20:05:00,70.5,65.1,29.83,SE,135,1.0,2.0,83,0.00,,,0.00,VWS V14.01,2013-07-11 03:05:00,
2013-07-10 20:06:00,70.6,65.2,29.83,SSW,202,1.0,2.0,83,0.00,,,0.00,VWS V14.01,2013-07-11 03:06:00,
2013-07-10 20:07:00,70.5,65.1,29.83,SSE,158,1.0,2.0,83,0.00,,,0.00,VWS V14.01,2013-07-11 03:07:00,
2013-07-10 20:08:00,70.5,65.1,29.83,SE,135,0.0,1.0,83,0.00,,,0.00,VWS V14.01,2013-07-11 03:08:00,
2013-07-10 20:09:00,70.5,65.1,29.82,SE,135,0.0,1.0,83,0.00,,,0.00,VWS V14.01,2013-07-11 03:09:00,
2013-07-10 20:10:00,70.5,65.1,29.83,SE,135,0.0,0.0,83,0.00,,,0.00,VWS V14.01,2013-07-11 03:10:00,
2013-07-10 20:11:00,70.5,65.4,29.83,SE,135,0.0,1.0,84,0.00,,,0.00,VWS V14.01,2013-07-11 03:11:00,
2013-07-10 20:12:00,70.5,65.4,29.83,SE,135,1.0,2.0,84,0.00,,,0.00,VWS V14.01,2013-07-11 03:12:00,
2013-07-10 20:13:00,70.5,65.4,29.83,SE,135,1.0,1.0,84,0.00,,,0.00,VWS V14.01,2013-07-11 03:13:00,
2013-07-10 20:14:00,70.5,65.4,29.83,SSW,202,1.0,1.0,84,0.00,,,0.00,VWS V14.01,2013-07-11 03:14:00,
2013-07-10 20:15:00,70.5,65.4,29.83,South,180,1.0,2.0,84,0.00,,,0.00,VWS V14.01,2013-07-11 03:15:00,
2013-07-10 20:16:00,70.5,65.4,29.83,SE,135,1.0,2.0,84,0.00,,,0.00,VWS V14.01,2013-07-11 03:16:00,
2013-07-10 20:17:00,70.5,65.4,29.83,SW,225,2.0,2.0,84,0.00,,,0.00,VWS V14.01,2013-07-11 03:17:00,
2013-07-10 20:18:00,70.4,65.3,29.83,SW,225,1.0,2.0,84,0.00,,,0.00,VWS V14.01,2013-07-11 03:18:00,
2013-07-10 20:19:00,70.4,65.3,29.83,SSE,158,1.0,1.0,84,0.00,,,0.00,VWS V14.01,2013-07-11 03:19:00,
2013-07-10 20:20:00,70.4,65.3,29.83,SSE,158,1.0,1.0,84,0.00,,,0.00,VWS V14.01,2013-07-11 03:20:00,
2013-07-10 20:21:00,70.4,65.3,29.83,SSE,158,0.0,1.0,84,0.00,,,0.00,VWS V14.01,2013-07-11 03:21:00,
2013-07-10 20:22:00,70.4,65.3,29.83,SSW,202,1.0,1.0,84,0.00,,,0.00,VWS V14.01,2013-07-11 03:22:00,
2013-07-10 20:23:00,70.4,65.3,29.83,SSW,202,0.0,1.0,84,0.00,,,0.00,VWS V14.01,2013-07-11 03:23:00,
2013-07-10 20:24:00,70.4,65.3,29.83,South,180,0.0,1.0,84,0.00,,,0.00,VWS V14.01,2013-07-11 03:24:00,
2013-07-10 20:25:00,70.4,65.3,29.83,SE,135,1.0,3.0,84,0.00,,,0.00,VWS V14.01,2013-07-11 03:25:00,
2013-07-10 20:26:00,70.4,65.3,29.83,SE,135,1.0,2.0,84,0.00,,,0.00,VWS V14.01,2013-07-11 03:26:00,
2013-07-10 20:27:00,70.3,65.2,29.83,ESE,112,1.0,2.0,84,0.00,,,0.00,VWS V14.01,2013-07-11 03:27:00,
2013-07-10 20:28:00,70.3,65.2,29.83,SE,135,1.0,2.0,84,0.00,,,0.00,VWS V14.01,2013-07-11 03:28:00,
2013-07-10 20:29:00,70.3,65.2,29.83,SE,135,1.0,2.0,84,0.00,,,0.00,VWS V14.01,2013-07-11 03:29:00,
2013-07-10 20:30:00,70.3,65.2,29.83,SE,135,2.0,2.0,84,0.00,,,0.00,VWS V14.01,2013-07-11 03:30:00,
2013-07-10 20:31:00,70.3,65.2,29.83,ESE,112,1.0,2.0,84,0.00,,,0.00,VWS V14.01,2013-07-11 03:31:00,
2013-07-10 20:32:00,70.3,65.2,29.83,SE,135,2.0,2.0,84,0.00,,,0.00,VWS V14.01,2013-07-11 03:32:00,
2013-07-10 20:33:00,70.3,65.2,29.83,SE,135,1.0,3.0,84,0.00,,,0.00,VWS V14.01,2013-07-11 03:33:00,
2013-07-10 20:34:00,70.3,65.2,29.83,SE,135,2.0,3.0,84,0.00,,,0.00,VWS V14.01,2013-07-11 03:34:00,
2013-07-10 20:35:00,70.3,65.2,29.83,SE,135,2.0,4.0,84,0.00,,,0.00,VWS V14.01,2013-07-11 03:35:00,
2013-07-10 20:36:00,70.2,64.8,29.83,SE,135,3.0,5.0,83,0.00,,,0.00,VWS V14.01,2013-07-11 03:36:00,
2013-07-10 20:37:00,70.2,64.8,29.83,SE,135,4.0,5.0,83,0.00,,,0.00,VWS V14.01,2013-07-11 03:37:00,
2013-07-10 20:38:00,70.2,64.8,29.83,SE,135,1.0,4.0,83,0.00,,,0.00,VWS V14.01,2013-07-11 03:38:00,
2013-07-10 20:39:00,70.2,65.1,29.83,SSE,158,2.0,4.0,84,0.00,,,0.00,VWS V14.01,2013-07-11 03:39:00,
2013-07-10 20:40:00,70.2,65.1,29.83,SE,135,1.0,2.0,84,0.00,,,0.00,VWS V14.01,2013-07-11 03:40:00,
2013-07-10 20:41:00,70.2,65.1,29.83,SE,135,2.0,3.0,84,0.00,,,0.00,VWS V14.01,2013-07-11 03:41:00,
2013-07-10 20:42:00,70.2,65.1,29.83,SE,135,3.0,4.0,84,0.00,,,0.00,VWS V14.01,2013-07-11 03:42:00,
2013-07-10 20:43:00,70.1,65.1,29.83,SE,135,2.0,3.0,84,0.00,,,0.00,VWS V14.01,2013-07-11 03:43:00,
2013-07-10 20:44:00,70.1,65.1,29.83,SE,135,1.0,2.0,84,0.00,,,0.00,VWS V14.01,2013-07-11 03:44:00,
2013-07-10 20:45:00,70.1,65.1,29.83,ESE,112,2.0,4.0,84,0.00,,,0.00,VWS V14.01,2013-07-11 03:45:00,
2013-07-10 20:46:00,70.1,65.1,29.83,East,90,2.0,3.0,84,0.00,,,0.00,VWS V14.01,2013-07-11 03:46:00,
2013-07-10 20:47:00,70.0,64.9,29.84,SSE,158,2.0,4.0,84,0.00,,,0.00,VWS V14.01,2013-07-11 03:47:00,
2013-07-10 20:48:00,70.0,64.9,29.84,SSE,158,2.0,3.0,84,0.00,,,0.00,VWS V14.01,2013-07-11 03:48:00,
2013-07-10 20:49:00,70.0,64.9,29.84,SSW,202,1.0,2.0,84,0.00,,,0.00,VWS V14.01,2013-07-11 03:49:00,
2013-07-10 20:50:00,69.9,64.8,29.84,SSW,202,2.0,3.0,84,0.00,,,0.00,VWS V14.01,2013-07-11 03:50:00,
2013-07-10 20:51:00,69.9,64.8,29.84,SE,135,3.0,5.0,84,0.00,,,0.00,VWS V14.01,2013-07-11 03:51:00,
2013-07-10 20:52:00,69.9,64.8,29.84,SE,135,3.0,5.0,84,0.00,,,0.00,VWS V14.01,2013-07-11 03:52:00,
2013-07-10 20:53:00,69.8,64.8,29.84,SE,135,3.0,5.0,84,0.00,,,0.00,VWS V14.01,2013-07-11 03:53:00,
2013-07-10 20:54:00,69.8,64.8,29.84,SE,135,2.0,3.0,84,0.00,,,0.00,VWS V14.01,2013-07-11 03:54:00,
2013-07-10 20:55:00,69.8,65.1,29.84,SE,135,2.0,3.0,85,0.00,,,0.00,VWS V14.01,2013-07-11 03:55:00,
2013-07-10 20:56:00,69.7,65.0,29.84,SE,135,2.0,2.0,85,0.00,,,0.00,VWS V14.01,2013-07-11 03:56:00,
2013-07-10 20:57:00,69.7,65.0,29.84,East,90,2.0,4.0,85,0.00,,,0.00,VWS V14.01,2013-07-11 03:57:00,
2013-07-10 20:58:00,69.7,65.0,29.84,ESE,112,2.0,3.0,85,0.00,,,0.00,VWS V14.01,2013-07-11 03:58:00,
2013-07-10 20:59:00,69.6,64.9,29.84,SE,135,3.0,4.0,85,0.00,,,0.00,VWS V14.01,2013-07-11 03:59:00,
2013-07-10 21:00:00,69.6,64.9,29.84,SE,135,3.0,5.0,85,0.00,,,0.00,VWS V14.01,2013-07-11 04:00:00,
2013-07-10 21:01:00,69.6,64.9,29.84,ESE,112,2.0,3.0,85,0.00,,,0.00,VWS V14.01,2013-07-11 04:01:00,
2013-07-10 21:02:00,69.6,64.9,29.84,SE,135,1.0,2.0,85,0.00,,,0.00,VWS V14.01,2013-07-11 04:02:00,
2013-07-10 21:03:00,69.6,64.9,29.84,ESE,112,2.0,2.0,85,0.00,,,0.00,VWS V14.01,2013-07-11 04:03:00,
2013-07-10 21:04:00,69.5,65.1,29.84,ESE,112,1.0,4.0,86,0.00,,,0.00,VWS V14.01,2013-07-11 04:04:00,
2013-07-10 21:05:00,69.5,65.1,29.84,East,90,2.0,4.0,86,0.00,,,0.00,VWS V14.01,2013-07-11 04:05:00,
2013-07-10 21:06:00,69.5,65.1,29.84,ESE,112,2.0,3.0,86,0.00,,,0.00,VWS V14.01,2013-07-11 04:06:00,
2013-07-10 21:07:00,69.5,65.1,29.84,ESE,112,2.0,3.0,86,0.00,,,0.00,VWS V14.01,2013-07-11 04:07:00,
2013-07-10 21:08:00,69.5,65.1,29.84,East,90,2.0,2.0,86,0.00,,,0.00,VWS V14.01,2013-07-11 04:08:00,
2013-07-10 21:09:00,69.5,65.1,29.84,ESE,112,1.0,2.0,86,0.00,,,0.00,VWS V14.01,2013-07-11 04:09:00,
2013-07-10 21:10:00,69.4,65.0,29.84,SE,135,2.0,2.0,86,0.00,,,0.00,VWS V14.01,2013-07-11 04:10:00,
2013-07-10 21:11:00,69.4,65.0,29.84,ESE,112,2.0,3.0,86,0.00,,,0.00,VWS V14.01,2013-07-11 04:11:00,
2013-07-10 21:12:00,69.4,65.0,29.84,ESE,112,2.0,3.0,86,0.00,,,0.00,VWS V14.01,2013-07-11 04:12:00,
2013-07-10 21:13:00,69.4,65.0,29.84,ESE,112,2.0,2.0,86,0.00,,,0.00,VWS V14.01,2013-07-11 04:13:00,
2013-07-10 21:14:00,69.4,65.0,29.84,ESE,112,1.0,3.0,86,0.00,,,0.00,VWS V14.01,2013-07-11 04:14:00,
2013-07-10 21:15:00,69.3,64.9,29.84,SE,135,1.0,2.0,86,0.00,,,0.00,VWS V14.01,2013-07-11 04:15:00,
2013-07-10 21:16:00,69.3,64.9,29.84,ESE,112,1.0,2.0,86,0.00,,,0.00,VWS V14.01,2013-07-11 04:16:00,
2013-07-10 21:17:00,69.3,64.9,29.84,ESE,112,1.0,2.0,86,0.00,,,0.00,VWS V14.01,2013-07-11 04:17:00,
2013-07-10 21:18:00,69.3,64.9,29.84,ESE,112,0.0,1.0,86,0.00,,,0.00,VWS V14.01,2013-07-11 04:18:00,
2013-07-10 21:19:00,69.3,64.9,29.84,East,90,1.0,2.0,86,0.00,,,0.00,VWS V14.01,2013-07-11 04:19:00,
2013-07-10 21:20:00,69.3,64.9,29.84,East,90,1.0,2.0,86,0.00,,,0.00,VWS V14.01,2013-07-11 04:20:00,
2013-07-10 21:21:00,69.3,64.9,29.84,SE,135,1.0,2.0,86,0.00,,,0.00,VWS V14.01,2013-07-11 04:21:00,
2013-07-10 21:22:00,69.3,64.9,29.84,East,90,1.0,2.0,86,0.00,,,0.00,VWS V14.01,2013-07-11 04:22:00,
2013-07-10 21:23:00,69.3,64.9,29.83,East,90,0.0,1.0,86,0.00,,,0.00,VWS V14.01,2013-07-11 04:23:00,
2013-07-10 21:24:00,69.2,64.8,29.83,East,90,1.0,2.0,86,0.00,,,0.00,VWS V14.01,2013-07-11 04:24:00,
2013-07-10 21:25:00,69.2,64.8,29.83,ESE,112,1.0,2.0,86,0.00,,,0.00,VWS V14.01,2013-07-11 04:25:00,
2013-07-10 21:26:00,69.2,64.8,29.83,ESE,112,1.0,3.0,86,0.00,,,0.00,VWS V14.01,2013-07-11 04:26:00,
2013-07-10 21:27:00,69.2,64.8,29.83,East,90,2.0,3.0,86,0.00,,,0.00,VWS V14.01,2013-07-11 04:27:00,
2013-07-10 21:28:00,69.2,64.8,29.83,East,90,1.0,2.0,86,0.00,,,0.00,VWS V14.01,2013-07-11 04:28:00,
2013-07-10 21:29:00,69.2,65.2,29.83,ESE,112,0.0,1.0,87,0.00,,,0.00,VWS V14.01,2013-07-11 04:29:00,
2013-07-10 21:30:00,69.2,65.2,29.83,ESE,112,0.0,0.0,87,0.00,,,0.00,VWS V14.01,2013-07-11 04:30:00,
2013-07-10 21:31:00,69.2,65.2,29.84,SE,135,1.0,1.0,87,0.00,,,0.00,VWS V14.01,2013-07-11 04:31:00,
2013-07-10 21:32:00,69.2,65.2,29.84,SE,135,1.0,2.0,87,0.00,,,0.00,VWS V14.01,2013-07-11 04:32:00,
2013-07-10 21:33:00,69.2,65.2,29.84,SE,135,1.0,2.0,87,0.00,,,0.00,VWS V14.01,2013-07-11 04:33:00,
2013-07-10 21:34:00,69.2,65.2,29.84,SE,135,2.0,3.0,87,0.00,,,0.00,VWS V14.01,2013-07-11 04:34:00,
2013-07-10 21:35:00,69.2,65.2,29.84,SE,135,1.0,2.0,87,0.00,,,0.00,VWS V14.01,2013-07-11 04:35:00,
2013-07-10 21:36:00,69.1,65.1,29.84,SSW,202,1.0,2.0,87,0.00,,,0.00,VWS V14.01,2013-07-11 04:36:00,
2013-07-10 21:37:00,69.1,65.1,29.84,SSW,202,1.0,2.0,87,0.00,,,0.00,VWS V14.01,2013-07-11 04:37:00,
2013-07-10 21:38:00,69.1,65.1,29.84,SSE,158,1.0,3.0,87,0.00,,,0.00,VWS V14.01,2013-07-11 04:38:00,
2013-07-10 21:39:00,69.1,65.1,29.84,SSE,158,1.0,1.0,87,0.00,,,0.00,VWS V14.01,2013-07-11 04:39:00,
2013-07-10 21:40:00,69.0,65.0,29.84,SSW,202,1.0,1.0,87,0.00,,,0.00,VWS V14.01,2013-07-11 04:40:00,
2013-07-10 21:41:00,69.0,65.0,29.84,SSW,202,0.0,1.0,87,0.00,,,0.00,VWS V14.01,2013-07-11 04:41:00,
2013-07-10 21:42:00,69.0,65.0,29.84,SSW,202,1.0,1.0,87,0.00,,,0.00,VWS V14.01,2013-07-11 04:42:00,
2013-07-10 21:43:00,69.0,65.0,29.84,SSW,202,1.0,2.0,87,0.00,,,0.00,VWS V14.01,2013-07-11 04:43:00,
2013-07-10 21:44:00,69.0,65.0,29.84,SSW,202,1.0,1.0,87,0.00,,,0.00,VWS V14.01,2013-07-11 04:44:00,
2013-07-10 21:45:00,69.0,65.0,29.84,SSW,202,0.0,1.0,87,0.00,,,0.00,VWS V14.01,2013-07-11 04:45:00,
2013-07-10 21:46:00,69.0,65.0,29.84,SW,225,1.0,2.0,87,0.00,,,0.00,VWS V14.01,2013-07-11 04:46:00,
2013-07-10 21:47:00,69.0,65.0,29.84,SSW,202,1.0,2.0,87,0.00,,,0.00,VWS V14.01,2013-07-11 04:47:00,
2013-07-10 21:48:00,69.0,65.0,29.84,SW,225,1.0,2.0,87,0.00,,,0.00,VWS V14.01,2013-07-11 04:48:00,
2013-07-10 21:49:00,68.9,64.9,29.84,SW,225,1.0,2.0,87,0.00,,,0.00,VWS V14.01,2013-07-11 04:49:00,
2013-07-10 21:50:00,68.9,64.9,29.84,WSW,248,2.0,3.0,87,0.00,,,0.00,VWS V14.01,2013-07-11 04:50:00,
2013-07-10 21:51:00,68.9,64.9,29.84,SW,225,1.0,2.0,87,0.00,,,0.00,VWS V14.01,2013-07-11 04:51:00,
2013-07-10 21:52:00,68.9,64.9,29.84,SW,225,2.0,3.0,87,0.00,,,0.00,VWS V14.01,2013-07-11 04:52:00,
2013-07-10 21:53:00,68.9,64.9,29.84,SSW,202,2.0,3.0,87,0.00,,,0.00,VWS V14.01,2013-07-11 04:53:00,
2013-07-10 21:54:00,68.8,64.8,29.84,SSW,202,2.0,3.0,87,0.00,,,0.00,VWS V14.01,2013-07-11 04:54:00,
2013-07-10 21:55:00,68.8,64.8,29.84,SW,225,1.0,2.0,87,0.00,,,0.00,VWS V14.01,2013-07-11 04:55:00,
2013-07-10 21:56:00,68.8,64.8,29.84,SE,135,1.0,2.0,87,0.00,,,0.00,VWS V14.01,2013-07-11 04:56:00,
2013-07-10 21:57:00,68.8,64.8,29.84,SW,225,1.0,2.0,87,0.00,,,0.00,VWS V14.01,2013-07-11 04:57:00,
2013-07-10 21:58:00,68.8,64.8,29.84,SW,225,0.0,1.0,87,0.00,,,0.00,VWS V14.01,2013-07-11 04:58:00,
2013-07-10 21:59:00,68.7,64.7,29.84,WSW,248,1.0,2.0,87,0.00,,,0.00,VWS V14.01,2013-07-11 04:59:00,
2013-07-10 22:00:00,68.7,64.7,29.84,SW,225,1.0,3.0,87,0.00,,,0.00,VWS V14.01,2013-07-11 05:00:00,
2013-07-10 22:01:00,68.7,64.7,29.84,SSW,202,0.0,1.0,87,0.00,,,0.00,VWS V14.01,2013-07-11 05:01:00,
2013-07-10 22:02:00,68.6,64.6,29.84,SW,225,0.0,1.0,87,0.00,,,0.00,VWS V14.01,2013-07-11 05:02:00,
2013-07-10 22:03:00,68.6,64.9,29.84,WSW,248,0.0,1.0,88,0.00,,,0.00,VWS V14.01,2013-07-11 05:03:00,
2013-07-10 22:04:00,68.6,64.9,29.84,WSW,248,0.0,0.0,88,0.00,,,0.00,VWS V14.01,2013-07-11 05:04:00,
2013-07-10 22:05:00,68.6,64.9,29.84,West,270,0.0,1.0,88,0.00,,,0.00,VWS V14.01,2013-07-11 05:05:00,
2013-07-10 22:06:00,68.6,64.9,29.84,SW,225,0.0,1.0,88,0.00,,,0.00,VWS V14.01,2013-07-11 05:06:00,
2013-07-10 22:07:00,68.6,64.9,29.84,SW,225,1.0,1.0,88,0.00,,,0.00,VWS V14.01,2013-07-11 05:07:00,
2013-07-10 22:08:00,68.6,64.9,29.84,SE,135,1.0,1.0,88,0.00,,,0.00,VWS V14.01,2013-07-11 05:08:00,
2013-07-10 22:09:00,68.5,64.8,29.84,SSE,158,1.0,1.0,88,0.00,,,0.00,VWS V14.01,2013-07-11 05:09:00,
2013-07-10 22:10:00,68.5,64.8,29.84,SSE,158,0.0,1.0,88,0.00,,,0.00,VWS V14.01,2013-07-11 05:10:00,
2013-07-10 22:11:00,68.5,64.8,29.84,SSE,158,1.0,1.0,88,0.00,,,0.00,VWS V14.01,2013-07-11 05:11:00,
2013-07-10 22:12:00,68.5,64.8,29.84,SSE,158,1.0,1.0,88,0.00,,,0.00,VWS V14.01,2013-07-11 05:12:00,
2013-07-10 22:13:00,68.4,64.7,29.84,SSE,158,1.0,1.0,88,0.00,,,0.00,VWS V14.01,2013-07-11 05:13:00,
2013-07-10 22:14:00,68.4,64.7,29.84,SSE,158,1.0,2.0,88,0.00,,,0.00,VWS V14.01,2013-07-11 05:14:00,
2013-07-10 22:15:00,68.4,64.7,29.84,SSW,202,2.0,3.0,88,0.00,,,0.00,VWS V14.01,2013-07-11 05:15:00,
2013-07-10 22:16:00,68.4,64.7,29.84,SSW,202,1.0,2.0,88,0.00,,,0.00,VWS V14.01,2013-07-11 05:16:00,
2013-07-10 22:17:00,68.4,64.7,29.84,SE,135,1.0,1.0,88,0.00,,,0.00,VWS V14.01,2013-07-11 05:17:00,
2013-07-10 22:18:00,68.4,64.7,29.84,SW,225,1.0,1.0,88,0.00,,,0.00,VWS V14.01,2013-07-11 05:18:00,
2013-07-10 22:19:00,68.3,64.6,29.84,ESE,112,0.0,1.0,88,0.00,,,0.00,VWS V14.01,2013-07-11 05:19:00,
2013-07-10 22:20:00,68.3,64.6,29.85,ESE,112,1.0,1.0,88,0.00,,,0.00,VWS V14.01,2013-07-11 05:20:00,
2013-07-10 22:21:00,68.3,64.6,29.85,ESE,112,0.0,2.0,88,0.00,,,0.00,VWS V14.01,2013-07-11 05:21:00,
2013-07-10 22:22:00,68.3,64.6,29.84,SSW,202,1.0,2.0,88,0.00,,,0.00,VWS V14.01,2013-07-11 05:22:00,
2013-07-10 22:23:00,68.3,64.6,29.84,SSE,158,1.0,2.0,88,0.00,,,0.00,VWS V14.01,2013-07-11 05:23:00,
2013-07-10 22:24:00,68.2,64.5,29.85,SSW,202,3.0,4.0,88,0.00,,,0.00,VWS V14.01,2013-07-11 05:24:00,
2013-07-10 22:25:00,68.2,64.5,29.84,SSW,202,2.0,3.0,88,0.00,,,0.00,VWS V14.01,2013-07-11 05:25:00,
2013-07-10 22:26:00,68.2,64.5,29.84,SSW,202,2.0,3.0,88,0.00,,,0.00,VWS V14.01,2013-07-11 05:26:00,
2013-07-10 22:27:00,68.2,64.5,29.84,SW,225,2.0,2.0,88,0.00,,,0.00,VWS V14.01,2013-07-11 05:27:00,
2013-07-10 22:28:00,68.2,64.8,29.84,SW,225,2.0,2.0,89,0.00,,,0.00,VWS V14.01,2013-07-11 05:28:00,
2013-07-10 22:29:00,68.1,64.7,29.85,SW,225,0.0,1.0,89,0.00,,,0.00,VWS V14.01,2013-07-11 05:29:00,
2013-07-10 22:30:00,68.1,64.7,29.85,SW,225,0.0,1.0,89,0.00,,,0.00,VWS V14.01,2013-07-11 05:30:00,
2013-07-10 22:31:00,68.1,64.7,29.85,ESE,112,1.0,1.0,89,0.00,,,0.00,VWS V14.01,2013-07-11 05:31:00,
2013-07-10 22:32:00,68.1,64.7,29.85,ESE,112,1.0,2.0,89,0.00,,,0.00,VWS V14.01,2013-07-11 05:32:00,
2013-07-10 22:33:00,68.1,64.7,29.85,South,180,1.0,1.0,89,0.00,,,0.00,VWS V14.01,2013-07-11 05:33:00,
2013-07-10 22:34:00,68.1,64.7,29.84,South,180,0.0,1.0,89,0.00,,,0.00,VWS V14.01,2013-07-11 05:34:00,
2013-07-10 22:35:00,68.1,64.7,29.84,South,180,0.0,0.0,89,0.00,,,0.00,VWS V14.01,2013-07-11 05:35:00,
2013-07-10 22:36:00,68.1,64.7,29.84,ESE,112,1.0,1.0,89,0.00,,,0.00,VWS V14.01,2013-07-11 05:36:00,
2013-07-10 22:37:00,68.1,64.7,29.84,ESE,112,1.0,1.0,89,0.00,,,0.00,VWS V14.01,2013-07-11 05:37:00,
2013-07-10 22:38:00,68.1,64.7,29.84,ESE,112,1.0,1.0,89,0.00,,,0.00,VWS V14.01,2013-07-11 05:38:00,
2013-07-10 22:39:00,68.1,64.7,29.84,ESE,112,0.0,1.0,89,0.00,,,0.00,VWS V14.01,2013-07-11 05:39:00,
2013-07-10 22:40:00,68.1,64.7,29.84,ESE,112,1.0,1.0,89,0.00,,,0.00,VWS V14.01,2013-07-11 05:40:00,
2013-07-10 22:41:00,68.1,64.7,29.84,ESE,112,2.0,2.0,89,0.00,,,0.00,VWS V14.01,2013-07-11 05:41:00,
2013-07-10 22:42:00,68.1,64.7,29.84,ESE,112,1.0,2.0,89,0.00,,,0.00,VWS V14.01,2013-07-11 05:42:00,
2013-07-10 22:43:00,68.1,64.7,29.84,SE,135,1.0,2.0,89,0.00,,,0.00,VWS V14.01,2013-07-11 05:43:00,
2013-07-10 22:44:00,68.1,64.7,29.84,ESE,112,1.0,1.0,89,0.00,,,0.00,VWS V14.01,2013-07-11 05:44:00,
2013-07-10 22:45:00,68.2,64.8,29.84,ESE,112,1.0,1.0,89,0.00,,,0.00,VWS V14.01,2013-07-11 05:45:00,
2013-07-10 22:46:00,68.2,64.8,29.84,ESE,112,1.0,2.0,89,0.00,,,0.00,VWS V14.01,2013-07-11 05:46:00,
2013-07-10 22:47:00,68.2,64.8,29.84,ESE,112,2.0,2.0,89,0.00,,,0.00,VWS V14.01,2013-07-11 05:47:00,
2013-07-10 22:48:00,68.2,64.8,29.84,ESE,112,1.0,3.0,89,0.00,,,0.00,VWS V14.01,2013-07-11 05:48:00,
2013-07-10 22:49:00,68.2,64.8,29.84,East,90,1.0,2.0,89,0.00,,,0.00,VWS V14.01,2013-07-11 05:49:00,
2013-07-10 22:50:00,68.2,64.8,29.84,East,90,1.0,1.0,89,0.00,,,0.00,VWS V14.01,2013-07-11 05:50:00,
2013-07-10 22:51:00,68.2,64.8,29.84,East,90,2.0,3.0,89,0.00,,,0.00,VWS V14.01,2013-07-11 05:51:00,
2013-07-10 22:52:00,68.2,64.8,29.84,SE,135,2.0,3.0,89,0.00,,,0.00,VWS V14.01,2013-07-11 05:52:00,
2013-07-10 22:53:00,68.2,64.8,29.84,SE,135,1.0,3.0,89,0.00,,,0.00,VWS V14.01,2013-07-11 05:53:00,
2013-07-10 22:54:00,68.2,64.8,29.84,SE,135,2.0,2.0,89,0.00,,,0.00,VWS V14.01,2013-07-11 05:54:00,
2013-07-10 22:55:00,68.2,64.8,29.84,SE,135,1.0,2.0,89,0.00,,,0.00,VWS V14.01,2013-07-11 05:55:00,
2013-07-10 22:56:00,68.2,64.8,29.84,SE,135,1.0,2.0,89,0.00,,,0.00,VWS V14.01,2013-07-11 05:56:00,
2013-07-10 22:57:00,68.2,64.8,29.84,South,180,1.0,2.0,89,0.00,,,0.00,VWS V14.01,2013-07-11 05:57:00,
2013-07-10 22:58:00,68.2,64.8,29.84,SE,135,2.0,3.0,89,0.00,,,0.00,VWS V14.01,2013-07-11 05:58:00,
2013-07-10 22:59:00,68.2,64.8,29.84,SSW,202,1.0,1.0,89,0.00,,,0.00,VWS V14.01,2013-07-11 05:59:00,
2013-07-10 23:00:00,68.2,64.8,29.84,SSW,202,1.0,2.0,89,0.00,,,0.00,VWS V14.01,2013-07-11 06:00:00,
2013-07-10 23:01:00,68.1,64.7,29.84,South,180,2.0,4.0,89,0.00,,,0.00,VWS V14.01,2013-07-11 06:01:00,
2013-07-10 23:02:00,68.2,64.8,29.84,ESE,112,2.0,3.0,89,0.00,,,0.00,VWS V14.01,2013-07-11 06:02:00,
2013-07-10 23:03:00,68.1,64.7,29.84,SE,135,2.0,2.0,89,0.00,,,0.00,VWS V14.01,2013-07-11 06:03:00,
2013-07-10 23:04:00,68.1,64.7,29.85,SE,135,0.0,1.0,89,0.00,,,0.00,VWS V14.01,2013-07-11 06:04:00,
2013-07-10 23:05:00,68.1,64.7,29.85,SE,135,1.0,2.0,89,0.00,,,0.00,VWS V14.01,2013-07-11 06:05:00,
2013-07-10 23:06:00,68.1,64.7,29.85,SE,135,2.0,3.0,89,0.00,,,0.00,VWS V14.01,2013-07-11 06:06:00,
2013-07-10 23:07:00,68.1,64.7,29.85,SE,135,1.0,2.0,89,0.00,,,0.00,VWS V14.01,2013-07-11 06:07:00,
2013-07-10 23:08:00,68.1,64.7,29.85,SSE,158,1.0,2.0,89,0.00,,,0.00,VWS V14.01,2013-07-11 06:08:00,
2013-07-10 23:09:00,68.1,64.7,29.85,ESE,112,1.0,2.0,89,0.00,,,0.00,VWS V14.01,2013-07-11 06:09:00,
2013-07-10 23:10:00,68.1,64.7,29.85,SE,135,2.0,4.0,89,0.00,,,0.00,VWS V14.01,2013-07-11 06:10:00,
2013-07-10 23:11:00,68.1,64.7,29.85,SE,135,2.0,3.0,89,0.00,,,0.00,VWS V14.01,2013-07-11 06:11:00,
2013-07-10 23:12:00,68.0,64.6,29.85,SSE,158,2.0,3.0,89,0.00,,,0.00,VWS V14.01,2013-07-11 06:12:00,
2013-07-10 23:13:00,68.0,64.6,29.85,South,180,2.0,2.0,89,0.00,,,0.00,VWS V14.01,2013-07-11 06:13:00,
2013-07-10 23:14:00,68.0,64.6,29.85,SE,135,1.0,2.0,89,0.00,,,0.00,VWS V14.01,2013-07-11 06:14:00,
2013-07-10 23:15:00,68.0,64.6,29.85,SE,135,2.0,4.0,89,0.00,,,0.00,VWS V14.01,2013-07-11 06:15:00,
2013-07-10 23:16:00,68.0,64.6,29.85,ESE,112,2.0,4.0,89,0.00,,,0.00,VWS V14.01,2013-07-11 06:16:00,
2013-07-10 23:17:00,67.9,64.5,29.85,ESE,112,3.0,5.0,89,0.00,,,0.00,VWS V14.01,2013-07-11 06:17:00,
2013-07-10 23:18:00,67.9,64.5,29.85,ESE,112,2.0,4.0,89,0.00,,,0.00,VWS V14.01,2013-07-11 06:18:00,
2013-07-10 23:19:00,67.9,64.5,29.85,SE,135,2.0,4.0,89,0.00,,,0.00,VWS V14.01,2013-07-11 06:19:00,
2013-07-10 23:20:00,67.9,64.5,29.85,ESE,112,2.0,3.0,89,0.00,,,0.00,VWS V14.01,2013-07-11 06:20:00,
2013-07-10 23:21:00,67.8,64.4,29.85,SE,135,3.0,6.0,89,0.00,,,0.00,VWS V14.01,2013-07-11 06:21:00,
2013-07-10 23:22:00,67.8,64.4,29.85,SE,135,2.0,4.0,89,0.00,,,0.00,VWS V14.01,2013-07-11 06:22:00,
2013-07-10 23:23:00,67.8,64.4,29.85,SE,135,4.0,5.0,89,0.00,,,0.00,VWS V14.01,2013-07-11 06:23:00,
2013-07-10 23:24:00,67.7,64.3,29.85,SE,135,5.0,7.0,89,0.00,,,0.00,VWS V14.01,2013-07-11 06:24:00,
2013-07-10 23:25:00,67.7,64.7,29.85,SE,135,4.0,5.0,90,0.00,,,0.00,VWS V14.01,2013-07-11 06:25:00,
2013-07-10 23:26:00,67.7,64.7,29.84,SE,135,2.0,4.0,90,0.00,,,0.00,VWS V14.01,2013-07-11 06:26:00,
2013-07-10 23:27:00,67.7,64.7,29.85,SE,135,1.0,3.0,90,0.00,,,0.00,VWS V14.01,2013-07-11 06:27:00,
2013-07-10 23:28:00,67.6,64.6,29.85,SE,135,3.0,5.0,90,0.00,,,0.00,VWS V14.01,2013-07-11 06:28:00,
2013-07-10 23:29:00,67.6,64.6,29.84,SSE,158,2.0,3.0,90,0.00,,,0.00,VWS V14.01,2013-07-11 06:29:00,
2013-07-10 23:30:00,67.6,64.6,29.84,SE,135,2.0,4.0,90,0.00,,,0.00,VWS V14.01,2013-07-11 06:30:00,
2013-07-10 23:31:00,67.6,64.6,29.84,SE,135,2.0,4.0,90,0.00,,,0.00,VWS V14.01,2013-07-11 06:31:00,
2013-07-10 23:32:00,67.6,64.6,29.84,SE,135,3.0,4.0,90,0.00,,,0.00,VWS V14.01,2013-07-11 06:32:00,
2013-07-10 23:33:00,67.5,64.5,29.84,SE,135,3.0,4.0,90,0.00,,,0.00,VWS V14.01,2013-07-11 06:33:00,
2013-07-10 23:34:00,67.5,64.5,29.84,SE,135,3.0,5.0,90,0.00,,,0.00,VWS V14.01,2013-07-11 06:34:00,
2013-07-10 23:35:00,67.6,64.6,29.84,SE,135,5.0,6.0,90,0.00,,,0.00,VWS V14.01,2013-07-11 06:35:00,
2013-07-10 23:36:00,67.6,64.6,29.84,SE,135,4.0,5.0,90,0.00,,,0.00,VWS V14.01,2013-07-11 06:36:00,
2013-07-10 23:37:00,67.5,64.5,29.85,ESE,112,3.0,4.0,90,0.00,,,0.00,VWS V14.01,2013-07-11 06:37:00,
2013-07-10 23:38:00,67.5,64.5,29.85,ESE,112,3.0,5.0,90,0.00,,,0.00,VWS V14.01,2013-07-11 06:38:00,
2013-07-10 23:39:00,67.5,64.5,29.85,East,90,5.0,6.0,90,0.00,,,0.00,VWS V14.01,2013-07-11 06:39:00,
2013-07-10 23:40:00,67.5,64.5,29.85,ESE,112,4.0,6.0,90,0.00,,,0.00,VWS V14.01,2013-07-11 06:40:00,
2013-07-10 23:41:00,67.5,64.5,29.85,SE,135,4.0,6.0,90,0.00,,,0.00,VWS V14.01,2013-07-11 06:41:00,
2013-07-10 23:42:00,67.5,64.5,29.85,ESE,112,3.0,7.0,90,0.00,,,0.00,VWS V14.01,2013-07-11 06:42:00,
2013-07-10 23:43:00,67.5,64.5,29.85,SE,135,4.0,5.0,90,0.00,,,0.00,VWS V14.01,2013-07-11 06:43:00,
2013-07-10 23:44:00,67.5,64.5,29.85,ESE,112,3.0,5.0,90,0.00,,,0.00,VWS V14.01,2013-07-11 06:44:00,
2013-07-10 23:45:00,67.5,64.5,29.85,ESE,112,4.0,5.0,90,0.00,,,0.00,VWS V14.01,2013-07-11 06:45:00,
2013-07-10 23:46:00,67.4,64.4,29.85,ESE,112,4.0,5.0,90,0.00,,,0.00,VWS V14.01,2013-07-11 06:46:00,
2013-07-10 23:47:00,67.4,64.4,29.85,ESE,112,3.0,5.0,90,0.00,,,0.00,VWS V14.01,2013-07-11 06:47:00,
2013-07-10 23:48:00,67.4,64.7,29.85,SE,135,2.0,3.0,91,0.00,,,0.00,VWS V14.01,2013-07-11 06:48:00,
2013-07-10 23:49:00,67.4,64.7,29.85,SE,135,2.0,5.0,91,0.00,,,0.00,VWS V14.01,2013-07-11 06:49:00,
2013-07-10 23:50:00,67.4,64.7,29.85,ESE,112,3.0,4.0,91,0.00,,,0.00,VWS V14.01,2013-07-11 06:50:00,
2013-07-10 23:51:00,67.4,64.7,29.85,ESE,112,4.0,5.0,91,0.00,,,0.00,VWS V14.01,2013-07-11 06:51:00,
2013-07-10 23:52:00,67.4,64.7,29.85,SE,135,2.0,4.0,91,0.00,,,0.00,VWS V14.01,2013-07-11 06:52:00,
2013-07-10 23:53:00,67.4,64.7,29.85,ESE,112,3.0,4.0,91,0.00,,,0.00,VWS V14.01,2013-07-11 06:53:00,
2013-07-10 23:54:00,67.4,64.7,29.85,SE,135,3.0,4.0,91,0.00,,,0.00,VWS V14.01,2013-07-11 06:54:00,
2013-07-10 23:55:00,67.4,64.7,29.85,SE,135,3.0,4.0,91,0.00,,,0.00,VWS V14.01,2013-07-11 06:55:00,
2013-07-10 23:56:00,67.4,64.7,29.85,SE,135,2.0,5.0,91,0.00,,,0.00,VWS V14.01,2013-07-11 06:56:00,
2013-07-10 23:57:00,67.4,64.7,29.85,SE,135,3.0,4.0,91,0.00,,,0.00,VWS V14.01,2013-07-11 06:57:00,
2013-07-10 23:58:00,67.3,64.6,29.85,SE,135,3.0,6.0,91,0.00,,,0.00,VWS V14.01,2013-07-11 06:58:00,
2013-07-10 23:59:00,67.4,64.7,29.85,SE,135,3.0,4.0,91,0.00,,,0.00,VWS V14.01,2013-07-11 06:59:00,